Time,TemperatureF,DewpointF,PressureIn,WindDirection,WindDirectionDegrees,WindSpeedMPH,WindSpeedGustMPH,Humidity,HourlyPrecipIn,Conditions,Clouds,dailyrainin,SoftwareType,DateUTC
2013-11-20 00:00:00,54.0,29.6,24.92,NW,316,5.8,6.3,39,0.00,,---,0.00,VWS V14.01,2013-11-20 06:00:00,
2013-11-20 00:01:00,54.0,29.6,24.92,NNW,327,5.8,8.1,39,0.00,,---,0.00,VWS V14.01,2013-11-20 06:01:00,
2013-11-20 00:03:00,54.0,29.6,24.92,NNW,335,5.8,8.1,39,0.00,,---,0.00,VWS V14.01,2013-11-20 06:03:00,
2013-11-20 00:05:00,54.1,29.8,24.92,NW,326,6.3,7.6,39,0.00,,---,0.00,VWS V14.01,2013-11-20 06:05:00,
2013-11-20 00:07:00,54.3,30.5,24.92,NW,324,4.9,7.6,40,0.00,,---,0.00,VWS V14.01,2013-11-20 06:07:00,
2013-11-20 00:10:00,54.5,30.7,24.92,NW,325,4.9,4.9,40,0.00,,---,0.00,VWS V14.01,2013-11-20 06:10:00,
2013-11-20 00:11:00,54.5,30.1,24.92,NNW,330,4.0,5.8,39,0.00,,---,0.00,VWS V14.01,2013-11-20 06:11:00,
2013-11-20 00:13:00,54.5,30.1,24.92,NW,320,5.8,5.8,39,0.00,,---,0.00,VWS V14.01,2013-11-20 06:13:00,
2013-11-20 00:14:00,54.5,30.1,24.92,NNW,327,5.8,6.7,39,0.00,,---,0.00,VWS V14.01,2013-11-20 06:14:00,
2013-11-20 00:16:00,54.7,30.2,24.92,NW,314,3.1,4.9,39,0.00,,---,0.00,VWS V14.01,2013-11-20 06:16:00,
2013-11-20 00:20:00,54.7,30.2,24.92,NNW,336,4.9,4.9,39,0.00,,---,0.00,VWS V14.01,2013-11-20 06:20:00,
2013-11-20 00:21:00,54.9,30.4,24.92,NNW,329,4.9,5.8,39,0.00,,---,0.00,VWS V14.01,2013-11-20 06:21:00,
2013-11-20 00:23:00,54.7,30.2,24.92,North,0,4.0,6.3,39,0.00,,---,0.00,VWS V14.01,2013-11-20 06:23:00,
2013-11-20 00:24:00,54.7,30.2,24.92,WNW,291,2.7,4.0,39,0.00,,---,0.00,VWS V14.01,2013-11-20 06:24:00,
2013-11-20 00:27:00,54.5,29.4,24.92,NW,309,0.0,0.0,38,0.00,,---,0.00,VWS V14.01,2013-11-20 06:27:00,
2013-11-20 00:30:00,54.1,29.1,24.92,NW,318,4.0,4.0,38,0.00,,---,0.00,VWS V14.01,2013-11-20 06:30:00,
2013-11-20 00:31:00,54.1,29.1,24.92,NW,307,3.1,4.0,38,0.00,,---,0.00,VWS V14.01,2013-11-20 06:31:00,
2013-11-20 00:34:00,53.8,28.8,24.92,NW,306,4.0,4.0,38,0.00,,---,0.00,VWS V14.01,2013-11-20 06:34:00,
2013-11-20 00:35:00,53.8,28.8,24.92,NW,306,2.2,4.0,38,0.00,,---,0.00,VWS V14.01,2013-11-20 06:35:00,
2013-11-20 00:38:00,53.6,28.6,24.92,NW,306,3.1,3.1,38,0.00,,---,0.00,VWS V14.01,2013-11-20 06:38:00,
2013-11-20 00:41:00,53.2,28.9,24.92,NW,323,4.0,4.0,39,0.00,,---,0.00,VWS V14.01,2013-11-20 06:41:00,
2013-11-20 00:42:00,53.2,28.9,24.92,NW,323,2.7,3.1,39,0.00,,---,0.00,VWS V14.01,2013-11-20 06:42:00,
2013-11-20 00:44:00,53.2,29.6,24.92,NW,318,3.6,3.6,40,0.00,,---,0.00,VWS V14.01,2013-11-20 06:44:00,
2013-11-20 00:46:00,53.4,29.7,24.92,NW,318,0.0,0.0,40,0.00,,---,0.00,VWS V14.01,2013-11-20 06:46:00,
2013-11-20 00:50:00,53.2,29.6,24.92,NW,319,0.0,0.0,40,0.00,,---,0.00,VWS V14.01,2013-11-20 06:50:00,
2013-11-20 00:52:00,53.2,29.6,24.92,NW,319,0.0,0.0,40,0.00,,---,0.00,VWS V14.01,2013-11-20 06:52:00,
2013-11-20 00:53:00,53.2,29.6,24.92,NW,319,0.0,0.0,40,0.00,,---,0.00,VWS V14.01,2013-11-20 06:53:00,
2013-11-20 00:55:00,53.2,29.6,24.92,NW,319,0.0,0.0,40,0.00,,---,0.00,VWS V14.01,2013-11-20 06:55:00,
2013-11-20 00:56:00,53.2,29.6,24.92,NNW,330,0.0,0.0,40,0.00,,---,0.00,VWS V14.01,2013-11-20 06:56:00,
2013-11-20 00:58:00,53.1,30.0,24.92,NNW,331,3.6,3.6,41,0.00,,---,0.00,VWS V14.01,2013-11-20 06:58:00,
2013-11-20 01:02:00,53.1,30.0,24.92,NNW,331,2.2,2.7,41,0.00,,---,0.00,VWS V14.01,2013-11-20 07:02:00,
2013-11-20 01:03:00,53.1,30.0,24.92,NNW,331,0.0,2.2,41,0.00,,---,0.00,VWS V14.01,2013-11-20 07:03:00,
2013-11-20 01:05:00,53.1,30.0,24.92,NNW,348,0.0,0.0,41,0.00,,---,0.00,VWS V14.01,2013-11-20 07:05:00,
2013-11-20 01:07:00,53.1,30.0,24.92,NNW,345,0.0,0.0,41,0.00,,---,0.00,VWS V14.01,2013-11-20 07:07:00,
2013-11-20 01:09:00,52.9,29.8,24.92,NNW,345,0.0,0.0,41,0.00,,---,0.00,VWS V14.01,2013-11-20 07:09:00,
2013-11-20 01:11:00,52.7,29.7,24.92,NNW,344,2.7,3.1,41,0.00,,---,0.00,VWS V14.01,2013-11-20 07:11:00,
2013-11-20 01:13:00,52.5,29.5,24.92,NNW,337,2.2,3.1,41,0.00,,---,0.00,VWS V14.01,2013-11-20 07:13:00,
2013-11-20 01:16:00,52.3,29.4,24.92,NNW,337,0.0,0.0,41,0.00,,---,0.00,VWS V14.01,2013-11-20 07:16:00,
2013-11-20 01:17:00,52.2,29.2,24.92,NW,322,3.6,3.6,41,0.00,,---,0.00,VWS V14.01,2013-11-20 07:17:00,
2013-11-20 01:19:00,52.0,29.0,24.92,NNW,330,3.1,5.8,41,0.00,,---,0.00,VWS V14.01,2013-11-20 07:19:00,
2013-11-20 01:21:00,51.8,29.5,24.92,NW,315,0.0,3.6,42,0.00,,---,0.00,VWS V14.01,2013-11-20 07:21:00,
2013-11-20 01:24:00,51.8,29.5,24.92,NW,315,0.0,0.0,42,0.00,,---,0.00,VWS V14.01,2013-11-20 07:24:00,
2013-11-20 01:27:00,51.6,29.3,24.92,North,0,2.7,3.6,42,0.00,,---,0.00,VWS V14.01,2013-11-20 07:27:00,
2013-11-20 01:28:00,51.6,29.9,24.92,NNE,13,3.1,3.1,43,0.00,,---,0.00,VWS V14.01,2013-11-20 07:28:00,
2013-11-20 01:32:00,51.6,30.4,24.92,NNE,14,0.0,0.0,44,0.00,,---,0.00,VWS V14.01,2013-11-20 07:32:00,
2013-11-20 01:34:00,51.6,30.4,24.92,NNE,14,0.0,0.0,44,0.00,,---,0.00,VWS V14.01,2013-11-20 07:34:00,
2013-11-20 01:35:00,51.6,30.4,24.92,NNE,18,2.2,2.7,44,0.00,,---,0.00,VWS V14.01,2013-11-20 07:35:00,
2013-11-20 01:36:00,51.6,30.4,24.92,North,0,2.2,3.6,44,0.00,,---,0.00,VWS V14.01,2013-11-20 07:36:00,
2013-11-20 01:38:00,51.4,30.3,24.92,North,0,0.0,2.2,44,0.00,,---,0.00,VWS V14.01,2013-11-20 07:38:00,
2013-11-20 01:39:00,51.4,30.3,24.92,North,357,0.0,0.0,44,0.00,,---,0.00,VWS V14.01,2013-11-20 07:39:00,
2013-11-20 01:40:00,51.3,30.1,24.92,North,353,0.0,0.0,44,0.00,,---,0.00,VWS V14.01,2013-11-20 07:40:00,
2013-11-20 01:42:00,51.3,30.7,24.92,NNW,341,0.0,0.0,45,0.00,,---,0.00,VWS V14.01,2013-11-20 07:42:00,
2013-11-20 01:45:00,51.3,31.2,24.92,North,357,3.1,3.1,46,0.00,,---,0.00,VWS V14.01,2013-11-20 07:45:00,
2013-11-20 01:48:00,51.4,31.4,24.92,NNW,334,3.1,3.1,46,0.00,,---,0.00,VWS V14.01,2013-11-20 07:48:00,
2013-11-20 01:49:00,51.4,31.4,24.92,NNW,337,2.7,3.6,46,0.00,,---,0.00,VWS V14.01,2013-11-20 07:49:00,
2013-11-20 01:50:00,51.4,31.4,24.92,NNW,332,4.0,4.0,46,0.00,,---,0.00,VWS V14.01,2013-11-20 07:50:00,
2013-11-20 01:52:00,51.4,31.4,24.92,NNW,332,3.6,4.0,46,0.00,,---,0.00,VWS V14.01,2013-11-20 07:52:00,
2013-11-20 01:53:00,51.4,31.4,24.92,North,0,2.7,2.7,46,0.00,,---,0.00,VWS V14.01,2013-11-20 07:53:00,
2013-11-20 01:55:00,51.4,31.9,24.92,NNW,343,2.7,3.6,47,0.00,,---,0.00,VWS V14.01,2013-11-20 07:55:00,
2013-11-20 01:56:00,51.6,32.1,24.92,NNW,338,0.0,0.0,47,0.00,,---,0.00,VWS V14.01,2013-11-20 07:56:00,
2013-11-20 01:57:00,51.6,32.1,24.92,NNW,338,0.0,0.0,47,0.00,,---,0.00,VWS V14.01,2013-11-20 07:57:00,
2013-11-20 01:59:00,51.6,32.1,24.92,NNW,345,3.1,3.1,47,0.00,,---,0.00,VWS V14.01,2013-11-20 07:59:00,
2013-11-20 02:01:00,51.6,32.1,24.92,NNW,345,0.0,2.2,47,0.00,,---,0.00,VWS V14.01,2013-11-20 08:01:00,
2013-11-20 02:03:00,51.6,31.5,24.92,NNW,345,0.0,0.0,46,0.00,,---,0.00,VWS V14.01,2013-11-20 08:03:00,
2013-11-20 02:05:00,51.6,31.5,24.92,NW,326,0.0,0.0,46,0.00,,---,0.00,VWS V14.01,2013-11-20 08:05:00,
2013-11-20 02:07:00,51.4,31.9,24.92,NNE,25,2.7,3.1,47,0.00,,---,0.00,VWS V14.01,2013-11-20 08:07:00,
2013-11-20 02:09:00,51.6,32.1,24.92,NE,39,2.7,2.7,47,0.00,,---,0.00,VWS V14.01,2013-11-20 08:09:00,
2013-11-20 02:12:00,51.6,32.1,24.92,NNW,330,3.6,5.4,47,0.00,,---,0.00,VWS V14.01,2013-11-20 08:12:00,
2013-11-20 02:13:00,51.8,32.2,24.92,NW,317,5.4,7.6,47,0.00,,---,0.00,VWS V14.01,2013-11-20 08:13:00,
2013-11-20 02:14:00,52.0,32.9,24.92,NW,322,5.4,5.8,48,0.00,,---,0.00,VWS V14.01,2013-11-20 08:14:00,
2013-11-20 02:17:00,52.3,33.8,24.92,NNW,338,7.2,7.2,49,0.00,,---,0.00,VWS V14.01,2013-11-20 08:17:00,
2013-11-20 02:19:00,52.9,34.3,24.92,NW,320,5.4,7.6,49,0.00,,---,0.00,VWS V14.01,2013-11-20 08:19:00,
2013-11-20 02:20:00,53.1,34.4,24.92,West,280,8.3,8.3,49,0.00,,---,0.00,VWS V14.01,2013-11-20 08:20:00,
2013-11-20 02:21:00,53.2,34.6,24.92,WNW,302,6.7,8.3,49,0.00,,---,0.00,VWS V14.01,2013-11-20 08:21:00,
2013-11-20 02:23:00,53.4,34.8,24.92,WNW,297,8.1,8.7,49,0.00,,---,0.00,VWS V14.01,2013-11-20 08:23:00,
2013-11-20 02:25:00,54.1,34.9,24.92,WNW,295,5.8,8.1,48,0.00,,---,0.00,VWS V14.01,2013-11-20 08:25:00,
2013-11-20 02:26:00,54.1,34.9,24.92,West,270,6.3,8.1,48,0.00,,---,0.00,VWS V14.01,2013-11-20 08:26:00,
2013-11-20 02:27:00,54.5,35.2,24.92,WNW,290,6.3,7.6,48,0.00,,---,0.00,VWS V14.01,2013-11-20 08:27:00,
2013-11-20 02:30:00,54.7,34.9,24.92,West,272,6.3,8.3,47,0.00,,---,0.00,VWS V14.01,2013-11-20 08:30:00,
2013-11-20 02:33:00,55.0,35.2,24.92,WNW,287,8.1,8.3,47,0.00,,---,0.00,VWS V14.01,2013-11-20 08:33:00,
2013-11-20 02:34:00,55.2,34.8,24.92,WNW,286,6.3,8.7,46,0.00,,---,0.00,VWS V14.01,2013-11-20 08:34:00,
2013-11-20 02:37:00,55.4,34.4,24.92,WNW,300,8.3,8.3,45,0.00,,---,0.00,VWS V14.01,2013-11-20 08:37:00,
2013-11-20 02:40:00,55.6,34.6,24.92,WNW,287,5.4,8.1,45,0.00,,---,0.00,VWS V14.01,2013-11-20 08:40:00,
2013-11-20 02:41:00,55.8,34.8,24.92,WNW,296,5.8,5.8,45,0.00,,---,0.00,VWS V14.01,2013-11-20 08:41:00,
2013-11-20 02:42:00,55.8,34.2,24.92,West,278,7.2,10.5,44,0.00,,---,0.00,VWS V14.01,2013-11-20 08:42:00,
2013-11-20 02:44:00,55.8,34.2,24.92,WNW,292,6.7,7.6,44,0.00,,---,0.00,VWS V14.01,2013-11-20 08:44:00,
2013-11-20 02:47:00,55.9,33.8,24.92,WNW,282,6.3,8.1,43,0.00,,---,0.00,VWS V14.01,2013-11-20 08:47:00,
2013-11-20 02:49:00,55.9,33.8,24.92,SW,226,2.7,6.3,43,0.00,,---,0.00,VWS V14.01,2013-11-20 08:49:00,
2013-11-20 02:52:00,55.9,33.2,24.92,WNW,297,5.8,8.3,42,0.00,,---,0.00,VWS V14.01,2013-11-20 08:52:00,
2013-11-20 02:54:00,55.9,33.2,24.92,WNW,301,5.4,8.1,42,0.00,,---,0.00,VWS V14.01,2013-11-20 08:54:00,
2013-11-20 02:57:00,55.9,33.8,24.92,WNW,303,5.4,6.3,43,0.00,,---,0.00,VWS V14.01,2013-11-20 08:57:00,
2013-11-20 02:59:00,55.9,33.8,24.92,NNW,335,4.0,6.3,43,0.00,,---,0.00,VWS V14.01,2013-11-20 08:59:00,
2013-11-20 03:01:00,55.9,32.6,24.92,NW,322,2.7,3.6,41,0.00,,---,0.00,VWS V14.01,2013-11-20 09:01:00,
2013-11-20 03:03:00,55.6,32.3,24.92,NW,322,3.1,3.6,41,0.00,,---,0.00,VWS V14.01,2013-11-20 09:03:00,
2013-11-20 03:04:00,55.2,32.0,24.92,NW,322,2.7,3.1,41,0.00,,---,0.00,VWS V14.01,2013-11-20 09:04:00,
2013-11-20 03:06:00,54.9,31.6,24.92,NW,322,0.0,0.0,41,0.00,,---,0.00,VWS V14.01,2013-11-20 09:06:00,
2013-11-20 03:08:00,54.7,31.5,24.92,NW,322,2.7,3.1,41,0.00,,---,0.00,VWS V14.01,2013-11-20 09:08:00,
2013-11-20 03:09:00,54.5,31.3,24.92,NW,322,0.0,0.0,41,0.00,,---,0.00,VWS V14.01,2013-11-20 09:09:00,
2013-11-20 03:10:00,54.3,31.1,24.92,NW,322,0.0,0.0,41,0.00,,---,0.00,VWS V14.01,2013-11-20 09:10:00,
2013-11-20 03:13:00,53.8,30.6,24.92,NW,322,3.1,3.6,41,0.00,,---,0.00,VWS V14.01,2013-11-20 09:13:00,
2013-11-20 03:15:00,53.6,30.5,24.92,NW,319,3.1,5.4,41,0.00,,---,0.00,VWS V14.01,2013-11-20 09:15:00,
2013-11-20 03:19:00,53.1,30.6,24.92,NW,304,3.1,3.6,42,0.00,,---,0.00,VWS V14.01,2013-11-20 09:19:00,
2013-11-20 03:22:00,52.7,30.3,24.92,WNW,301,3.6,4.9,42,0.00,,---,0.00,VWS V14.01,2013-11-20 09:22:00,
2013-11-20 03:23:00,52.5,30.7,24.92,WNW,301,5.4,5.4,43,0.00,,---,0.00,VWS V14.01,2013-11-20 09:23:00,
2013-11-20 03:26:00,52.5,30.7,24.92,WNW,289,3.1,4.0,43,0.00,,---,0.00,VWS V14.01,2013-11-20 09:26:00,
2013-11-20 03:27:00,52.5,31.2,24.92,WNW,291,3.1,4.0,44,0.00,,---,0.00,VWS V14.01,2013-11-20 09:27:00,
2013-11-20 03:29:00,52.5,31.2,24.92,WNW,291,3.6,3.6,44,0.00,,---,0.00,VWS V14.01,2013-11-20 09:29:00,
2013-11-20 03:31:00,52.3,31.1,24.92,WNW,285,2.7,3.6,44,0.00,,---,0.00,VWS V14.01,2013-11-20 09:31:00,
2013-11-20 03:33:00,52.3,31.1,24.92,WNW,285,0.0,2.7,44,0.00,,---,0.00,VWS V14.01,2013-11-20 09:33:00,
2013-11-20 03:35:00,52.2,30.9,24.92,WNW,284,2.2,3.1,44,0.00,,---,0.00,VWS V14.01,2013-11-20 09:35:00,
2013-11-20 03:36:00,52.0,30.8,24.92,WNW,284,0.0,2.7,44,0.00,,---,0.00,VWS V14.01,2013-11-20 09:36:00,
2013-11-20 03:38:00,51.8,31.1,24.92,WNW,284,0.0,0.0,45,0.00,,---,0.00,VWS V14.01,2013-11-20 09:38:00,
2013-11-20 03:39:00,51.8,31.1,24.92,WNW,284,0.0,0.0,45,0.00,,---,0.00,VWS V14.01,2013-11-20 09:39:00,
2013-11-20 03:40:00,51.8,31.1,24.92,WNW,284,0.0,0.0,45,0.00,,---,0.00,VWS V14.01,2013-11-20 09:40:00,
2013-11-20 03:42:00,51.8,31.7,24.92,WNW,284,0.0,0.0,46,0.00,,---,0.00,VWS V14.01,2013-11-20 09:42:00,
2013-11-20 03:44:00,51.8,31.7,24.92,WNW,284,0.0,0.0,46,0.00,,---,0.00,VWS V14.01,2013-11-20 09:44:00,
2013-11-20 03:45:00,51.8,31.7,24.92,WNW,284,0.0,0.0,46,0.00,,---,0.00,VWS V14.01,2013-11-20 09:45:00,
2013-11-20 03:47:00,51.8,31.7,24.92,WNW,287,0.0,0.0,46,0.00,,---,0.00,VWS V14.01,2013-11-20 09:47:00,
2013-11-20 03:49:00,51.8,31.7,24.92,WNW,292,3.1,7.2,46,0.00,,---,0.00,VWS V14.01,2013-11-20 09:49:00,
2013-11-20 03:50:00,51.8,32.2,24.92,WNW,292,0.0,3.1,47,0.00,,---,0.00,VWS V14.01,2013-11-20 09:50:00,
2013-11-20 03:51:00,51.8,32.2,24.92,WNW,286,2.7,3.1,47,0.00,,---,0.00,VWS V14.01,2013-11-20 09:51:00,
2013-11-20 03:52:00,52.0,32.4,24.92,WNW,302,4.0,4.0,47,0.00,,---,0.00,VWS V14.01,2013-11-20 09:52:00,
2013-11-20 03:56:00,52.0,32.4,24.92,NW,312,3.6,3.6,47,0.00,,---,0.00,VWS V14.01,2013-11-20 09:56:00,
2013-11-20 03:57:00,52.0,32.4,24.92,West,276,4.0,4.0,47,0.00,,---,0.00,VWS V14.01,2013-11-20 09:57:00,
2013-11-20 03:58:00,51.8,32.2,24.92,NW,305,4.0,4.0,47,0.00,,---,0.00,VWS V14.01,2013-11-20 09:58:00,
2013-11-20 03:59:00,51.8,32.2,24.92,North,353,3.6,4.0,47,0.00,,---,0.00,VWS V14.01,2013-11-20 09:59:00,
2013-11-20 04:03:00,51.8,32.8,24.92,North,357,4.0,5.8,48,0.00,,---,0.00,VWS V14.01,2013-11-20 10:03:00,
2013-11-20 04:04:00,52.0,32.9,24.92,North,4,2.7,4.9,48,0.00,,---,0.00,VWS V14.01,2013-11-20 10:04:00,
2013-11-20 04:05:00,52.0,32.9,24.92,NW,322,3.1,3.1,48,0.00,,---,0.00,VWS V14.01,2013-11-20 10:05:00,
2013-11-20 04:07:00,52.0,33.4,24.92,NW,314,5.8,5.8,49,0.00,,---,0.00,VWS V14.01,2013-11-20 10:07:00,
2013-11-20 04:11:00,52.2,33.6,24.92,NW,325,2.7,4.0,49,0.00,,---,0.00,VWS V14.01,2013-11-20 10:11:00,
2013-11-20 04:12:00,52.3,33.8,24.92,NW,313,5.4,5.4,49,0.00,,---,0.00,VWS V14.01,2013-11-20 10:12:00,
2013-11-20 04:13:00,52.3,33.8,24.92,NNW,331,2.7,7.6,49,0.00,,---,0.00,VWS V14.01,2013-11-20 10:13:00,
2013-11-20 04:15:00,52.3,33.8,24.92,NNW,331,3.1,5.4,49,0.00,,---,0.00,VWS V14.01,2013-11-20 10:15:00,
2013-11-20 04:18:00,52.5,33.9,24.92,NW,309,3.6,5.4,49,0.00,,---,0.00,VWS V14.01,2013-11-20 10:18:00,
2013-11-20 04:19:00,52.5,33.9,24.92,NW,310,2.7,4.9,49,0.00,,---,0.00,VWS V14.01,2013-11-20 10:19:00,
2013-11-20 04:20:00,52.5,33.9,24.92,NW,324,4.0,4.0,49,0.00,,---,0.00,VWS V14.01,2013-11-20 10:20:00,
2013-11-20 04:22:00,52.3,33.8,24.92,NW,324,0.0,4.0,49,0.00,,---,0.00,VWS V14.01,2013-11-20 10:22:00,
2013-11-20 04:23:00,52.3,33.8,24.92,NNE,14,3.6,4.0,49,0.00,,---,0.00,VWS V14.01,2013-11-20 10:23:00,
2013-11-20 04:24:00,52.3,33.8,24.92,North,357,2.7,3.6,49,0.00,,---,0.00,VWS V14.01,2013-11-20 10:24:00,
2013-11-20 04:27:00,52.2,33.6,24.92,NNW,328,0.0,0.0,49,0.00,,---,0.00,VWS V14.01,2013-11-20 10:27:00,
2013-11-20 04:29:00,52.0,32.9,24.92,NW,318,2.7,3.6,48,0.00,,---,0.00,VWS V14.01,2013-11-20 10:29:00,
2013-11-20 04:32:00,51.8,33.3,24.92,NW,319,0.0,0.0,49,0.00,,---,0.00,VWS V14.01,2013-11-20 10:32:00,
2013-11-20 04:36:00,51.6,33.1,24.92,NW,319,0.0,0.0,49,0.00,,---,0.00,VWS V14.01,2013-11-20 10:36:00,
2013-11-20 04:37:00,51.4,32.9,24.92,NW,319,0.0,0.0,49,0.00,,---,0.00,VWS V14.01,2013-11-20 10:37:00,
2013-11-20 04:39:00,51.4,32.9,24.92,NW,319,0.0,0.0,49,0.00,,---,0.00,VWS V14.01,2013-11-20 10:39:00,
2013-11-20 04:41:00,51.4,32.9,24.92,WNW,302,0.0,0.0,49,0.00,,---,0.00,VWS V14.01,2013-11-20 10:41:00,
2013-11-20 04:43:00,51.3,32.8,24.92,NW,312,0.0,0.0,49,0.00,,---,0.00,VWS V14.01,2013-11-20 10:43:00,
2013-11-20 04:45:00,51.3,33.3,24.92,NW,308,5.4,5.8,50,0.00,,---,0.00,VWS V14.01,2013-11-20 10:45:00,
2013-11-20 04:46:00,51.3,33.3,24.92,NNW,327,3.1,5.4,50,0.00,,---,0.00,VWS V14.01,2013-11-20 10:46:00,
2013-11-20 04:48:00,51.4,33.4,24.92,NNW,331,0.0,3.6,50,0.00,,---,0.00,VWS V14.01,2013-11-20 10:48:00,
2013-11-20 04:50:00,51.4,33.4,24.92,NNW,331,0.0,0.0,50,0.00,,---,0.00,VWS V14.01,2013-11-20 10:50:00,
2013-11-20 04:51:00,51.4,33.4,24.92,NNW,331,0.0,0.0,50,0.00,,---,0.00,VWS V14.01,2013-11-20 10:51:00,
2013-11-20 04:53:00,51.4,33.4,24.92,NNW,331,0.0,0.0,50,0.00,,---,0.00,VWS V14.01,2013-11-20 10:53:00,
2013-11-20 04:54:00,51.4,33.4,24.92,NNW,331,0.0,0.0,50,0.00,,---,0.00,VWS V14.01,2013-11-20 10:54:00,
2013-11-20 04:57:00,51.3,33.3,24.92,NNW,333,0.0,0.0,50,0.00,,---,0.00,VWS V14.01,2013-11-20 10:57:00,
2013-11-20 05:00:00,51.1,33.1,24.92,NNW,333,0.0,0.0,50,0.00,,---,0.00,VWS V14.01,2013-11-20 11:00:00,
2013-11-20 05:02:00,51.1,33.1,24.92,NNW,333,0.0,0.0,50,0.00,,---,0.00,VWS V14.01,2013-11-20 11:02:00,
2013-11-20 05:04:00,51.1,33.6,24.92,NNW,333,0.0,0.0,51,0.00,,---,0.00,VWS V14.01,2013-11-20 11:04:00,
2013-11-20 05:07:00,51.1,33.6,24.92,NNW,333,0.0,0.0,51,0.00,,---,0.00,VWS V14.01,2013-11-20 11:07:00,
2013-11-20 05:08:00,51.1,33.6,24.92,NNW,333,0.0,0.0,51,0.00,,---,0.00,VWS V14.01,2013-11-20 11:08:00,
2013-11-20 05:10:00,51.1,33.6,24.92,NW,310,0.0,0.0,51,0.00,,---,0.00,VWS V14.01,2013-11-20 11:10:00,
2013-11-20 05:11:00,51.1,33.6,24.92,NW,307,0.0,0.0,51,0.00,,---,0.00,VWS V14.01,2013-11-20 11:11:00,
2013-11-20 05:14:00,51.1,33.6,24.92,NW,307,0.0,0.0,51,0.00,,---,0.00,VWS V14.01,2013-11-20 11:14:00,
2013-11-20 05:15:00,50.9,33.4,24.92,NW,307,0.0,0.0,51,0.00,,---,0.00,VWS V14.01,2013-11-20 11:15:00,
2013-11-20 05:17:00,50.7,33.3,24.92,NW,307,0.0,0.0,51,0.00,,---,0.00,VWS V14.01,2013-11-20 11:17:00,
2013-11-20 05:18:00,50.7,33.3,24.92,NW,307,0.0,0.0,51,0.00,,---,0.00,VWS V14.01,2013-11-20 11:18:00,
2013-11-20 05:19:00,50.7,33.8,24.92,NW,307,0.0,0.0,52,0.00,,---,0.00,VWS V14.01,2013-11-20 11:19:00,
2013-11-20 05:21:00,50.7,33.8,24.92,NW,307,0.0,0.0,52,0.00,,---,0.00,VWS V14.01,2013-11-20 11:21:00,
2013-11-20 05:24:00,50.5,33.6,24.92,NW,307,0.0,0.0,52,0.00,,---,0.00,VWS V14.01,2013-11-20 11:24:00,
2013-11-20 05:25:00,50.5,33.6,24.92,NW,307,0.0,0.0,52,0.00,,---,0.00,VWS V14.01,2013-11-20 11:25:00,
2013-11-20 05:27:00,50.4,33.4,24.92,NW,307,0.0,0.0,52,0.00,,---,0.00,VWS V14.01,2013-11-20 11:27:00,
2013-11-20 05:29:00,50.4,33.4,24.92,NW,307,0.0,0.0,52,0.00,,---,0.00,VWS V14.01,2013-11-20 11:29:00,
2013-11-20 05:31:00,50.4,33.4,24.92,NW,307,0.0,0.0,52,0.00,,---,0.00,VWS V14.01,2013-11-20 11:31:00,
2013-11-20 05:32:00,50.4,33.4,24.92,NW,307,0.0,0.0,52,0.00,,---,0.00,VWS V14.01,2013-11-20 11:32:00,
2013-11-20 05:35:00,50.2,33.7,24.92,NW,307,0.0,0.0,53,0.00,,---,0.00,VWS V14.01,2013-11-20 11:35:00,
2013-11-20 05:36:00,50.2,33.7,24.92,NW,307,0.0,0.0,53,0.00,,---,0.00,VWS V14.01,2013-11-20 11:36:00,
2013-11-20 05:38:00,50.2,33.7,24.92,NW,307,0.0,0.0,53,0.00,,---,0.00,VWS V14.01,2013-11-20 11:38:00,
2013-11-20 05:40:00,50.2,33.7,24.92,NW,307,0.0,0.0,53,0.00,,---,0.00,VWS V14.01,2013-11-20 11:40:00,
2013-11-20 05:43:00,49.8,33.4,24.92,NW,307,0.0,0.0,53,0.00,,---,0.00,VWS V14.01,2013-11-20 11:43:00,
2013-11-20 05:44:00,49.8,33.4,24.92,NW,307,0.0,0.0,53,0.00,,---,0.00,VWS V14.01,2013-11-20 11:44:00,
2013-11-20 05:46:00,49.5,33.1,24.92,NW,307,0.0,0.0,53,0.00,,---,0.00,VWS V14.01,2013-11-20 11:46:00,
2013-11-20 05:47:00,49.5,33.1,24.92,NW,307,0.0,0.0,53,0.00,,---,0.00,VWS V14.01,2013-11-20 11:47:00,
2013-11-20 05:49:00,49.3,32.9,24.92,NW,307,0.0,0.0,53,0.00,,---,0.00,VWS V14.01,2013-11-20 11:49:00,
2013-11-20 05:50:00,49.3,32.9,24.92,NW,307,0.0,0.0,53,0.00,,---,0.00,VWS V14.01,2013-11-20 11:50:00,
2013-11-20 05:51:00,49.3,32.9,24.92,NW,307,0.0,0.0,53,0.00,,---,0.00,VWS V14.01,2013-11-20 11:51:00,
2013-11-20 05:52:00,49.1,33.2,24.92,NW,307,0.0,0.0,54,0.00,,---,0.00,VWS V14.01,2013-11-20 11:52:00,
2013-11-20 05:53:00,49.1,33.2,24.92,NW,307,0.0,0.0,54,0.00,,---,0.00,VWS V14.01,2013-11-20 11:53:00,
2013-11-20 05:57:00,49.1,33.2,24.92,NW,307,0.0,0.0,54,0.00,,---,0.00,VWS V14.01,2013-11-20 11:57:00,
2013-11-20 05:59:00,49.1,33.2,24.92,NW,307,0.0,0.0,54,0.00,,---,0.00,VWS V14.01,2013-11-20 11:59:00,
2013-11-20 06:00:00,49.1,33.7,24.92,NW,307,0.0,0.0,55,0.00,,---,0.00,VWS V14.01,2013-11-20 12:00:00,
2013-11-20 06:02:00,49.1,33.7,24.92,NW,307,0.0,0.0,55,0.00,,---,0.00,VWS V14.01,2013-11-20 12:02:00,
2013-11-20 06:04:00,49.3,33.8,24.92,NW,307,0.0,0.0,55,0.00,,---,0.00,VWS V14.01,2013-11-20 12:04:00,
2013-11-20 06:05:00,49.3,33.8,24.92,NW,307,0.0,0.0,55,0.00,,---,0.00,VWS V14.01,2013-11-20 12:05:00,
2013-11-20 06:07:00,49.3,33.8,24.92,NW,307,0.0,0.0,55,0.00,,---,0.00,VWS V14.01,2013-11-20 12:07:00,
2013-11-20 06:09:00,49.3,33.8,24.92,NW,307,0.0,0.0,55,0.00,,---,0.00,VWS V14.01,2013-11-20 12:09:00,
2013-11-20 06:10:00,49.3,33.8,24.92,NW,307,0.0,0.0,55,0.00,,---,0.00,VWS V14.01,2013-11-20 12:10:00,
2013-11-20 06:11:00,49.3,33.8,24.92,NW,307,0.0,0.0,55,0.00,,---,0.00,VWS V14.01,2013-11-20 12:11:00,
2013-11-20 06:14:00,49.3,34.3,24.92,NW,307,0.0,0.0,56,0.00,,---,0.00,VWS V14.01,2013-11-20 12:14:00,
2013-11-20 06:17:00,49.3,34.3,24.92,NW,307,0.0,0.0,56,0.00,,---,0.00,VWS V14.01,2013-11-20 12:17:00,
2013-11-20 06:19:00,49.3,34.3,24.92,NW,307,0.0,0.0,56,0.00,,---,0.00,VWS V14.01,2013-11-20 12:19:00,
2013-11-20 06:20:00,49.3,34.3,24.92,NW,307,0.0,0.0,56,0.00,,---,0.00,VWS V14.01,2013-11-20 12:20:00,
2013-11-20 06:25:00,49.3,34.3,24.92,NW,307,0.0,0.0,56,0.00,,---,0.00,VWS V14.01,2013-11-20 12:25:00,
2013-11-20 06:26:00,49.1,34.1,24.92,NW,307,0.0,0.0,56,0.00,,---,0.00,VWS V14.01,2013-11-20 12:26:00,
2013-11-20 06:28:00,49.1,34.1,24.92,NW,307,0.0,0.0,56,0.00,,---,0.00,VWS V14.01,2013-11-20 12:28:00,
2013-11-20 06:29:00,48.9,33.9,24.92,NW,306,0.0,0.0,56,0.00,,---,0.00,VWS V14.01,2013-11-20 12:29:00,
2013-11-20 06:31:00,48.9,34.4,24.92,NW,306,0.0,0.0,57,0.00,,---,0.00,VWS V14.01,2013-11-20 12:31:00,
2013-11-20 06:33:00,48.9,34.4,24.92,NW,306,0.0,0.0,57,0.00,,---,0.00,VWS V14.01,2013-11-20 12:33:00,
2013-11-20 06:35:00,48.9,34.8,24.92,WNW,301,3.6,3.6,58,0.00,,---,0.00,VWS V14.01,2013-11-20 12:35:00,
2013-11-20 06:38:00,49.1,35.0,24.92,WNW,301,3.1,3.6,58,0.00,,---,0.00,VWS V14.01,2013-11-20 12:38:00,
2013-11-20 06:40:00,49.3,35.6,24.92,WNW,294,2.7,3.1,59,0.00,,---,0.00,VWS V14.01,2013-11-20 12:40:00,
2013-11-20 06:42:00,49.3,35.6,24.92,WNW,293,4.0,4.0,59,0.00,,---,0.00,VWS V14.01,2013-11-20 12:42:00,
2013-11-20 06:43:00,49.5,35.7,24.92,WNW,292,2.7,3.6,59,0.00,,---,0.00,VWS V14.01,2013-11-20 12:43:00,
2013-11-20 06:44:00,49.5,36.2,24.92,WNW,293,2.7,3.6,60,0.00,,---,0.00,VWS V14.01,2013-11-20 12:44:00,
2013-11-20 06:45:00,49.5,36.2,24.92,WNW,292,2.2,3.1,60,0.00,,---,0.00,VWS V14.01,2013-11-20 12:45:00,
2013-11-20 06:46:00,49.5,36.2,24.92,WNW,292,0.0,2.2,60,0.00,,---,0.00,VWS V14.01,2013-11-20 12:46:00,
2013-11-20 06:50:00,49.6,36.3,24.92,WNW,292,0.0,0.0,60,0.00,,---,0.00,VWS V14.01,2013-11-20 12:50:00,
2013-11-20 06:52:00,49.6,36.3,24.92,WNW,292,0.0,0.0,60,0.00,,---,0.00,VWS V14.01,2013-11-20 12:52:00,
2013-11-20 06:56:00,49.6,36.3,24.92,WNW,292,0.0,0.0,60,0.00,,---,0.00,VWS V14.01,2013-11-20 12:56:00,
2013-11-20 06:59:00,49.6,36.3,24.92,WNW,292,0.0,0.0,60,0.00,,---,0.00,VWS V14.01,2013-11-20 12:59:00,
2013-11-20 07:01:00,49.5,36.2,24.92,WNW,292,0.0,0.0,60,0.00,,---,0.00,VWS V14.01,2013-11-20 13:01:00,
2013-11-20 07:04:00,49.5,36.2,24.92,WNW,292,0.0,0.0,60,0.00,,---,0.00,VWS V14.01,2013-11-20 13:04:00,
2013-11-20 07:05:00,49.5,36.2,24.92,WNW,292,0.0,0.0,60,0.00,,---,0.00,VWS V14.01,2013-11-20 13:05:00,
2013-11-20 07:06:00,49.5,36.2,24.92,WNW,292,0.0,0.0,60,0.00,,---,0.00,VWS V14.01,2013-11-20 13:06:00,
2013-11-20 07:07:00,49.5,36.2,24.92,WNW,292,0.0,0.0,60,0.00,,---,0.00,VWS V14.01,2013-11-20 13:07:00,
2013-11-20 07:10:00,49.5,36.6,24.92,WNW,292,0.0,0.0,61,0.00,,---,0.00,VWS V14.01,2013-11-20 13:10:00,
2013-11-20 07:11:00,49.5,36.6,24.92,WNW,292,0.0,0.0,61,0.00,,---,0.00,VWS V14.01,2013-11-20 13:11:00,
2013-11-20 07:13:00,49.5,36.6,24.92,WNW,292,0.0,0.0,61,0.00,,---,0.00,VWS V14.01,2013-11-20 13:13:00,
2013-11-20 07:17:00,49.5,36.6,24.92,WNW,292,0.0,0.0,61,0.00,,---,0.00,VWS V14.01,2013-11-20 13:17:00,
2013-11-20 07:18:00,49.3,36.4,24.92,WNW,292,0.0,0.0,61,0.00,,---,0.00,VWS V14.01,2013-11-20 13:18:00,
2013-11-20 07:19:00,49.3,36.4,24.92,WNW,292,0.0,0.0,61,0.00,,---,0.00,VWS V14.01,2013-11-20 13:19:00,
2013-11-20 07:21:00,49.3,36.0,24.92,WNW,292,0.0,0.0,60,0.00,,---,0.00,VWS V14.01,2013-11-20 13:21:00,
2013-11-20 07:22:00,48.9,35.7,24.92,WNW,292,0.0,0.0,60,0.00,,---,0.00,VWS V14.01,2013-11-20 13:22:00,
2013-11-20 07:23:00,48.9,36.1,24.92,WNW,292,0.0,0.0,61,0.00,,---,0.00,VWS V14.01,2013-11-20 13:23:00,
2013-11-20 07:24:00,48.9,36.1,24.92,WNW,292,0.0,0.0,61,0.00,,---,0.00,VWS V14.01,2013-11-20 13:24:00,
2013-11-20 07:28:00,49.3,37.2,24.92,WNW,292,0.0,0.0,63,0.00,,---,0.00,VWS V14.01,2013-11-20 13:28:00,
2013-11-20 07:30:00,49.5,37.8,24.92,WNW,292,0.0,0.0,64,0.00,,---,0.00,VWS V14.01,2013-11-20 13:30:00,
2013-11-20 07:34:00,49.6,38.0,24.92,WNW,292,0.0,0.0,64,0.00,,---,0.00,VWS V14.01,2013-11-20 13:34:00,
2013-11-20 07:35:00,49.6,38.0,24.92,WNW,292,0.0,0.0,64,0.00,,---,0.00,VWS V14.01,2013-11-20 13:35:00,
2013-11-20 07:36:00,49.8,38.2,24.92,WNW,292,0.0,0.0,64,0.00,,---,0.00,VWS V14.01,2013-11-20 13:36:00,
2013-11-20 07:37:00,49.8,38.2,24.92,WNW,292,0.0,0.0,64,0.00,,---,0.00,VWS V14.01,2013-11-20 13:37:00,
2013-11-20 07:38:00,50.0,38.3,24.92,WNW,292,0.0,0.0,64,0.00,,---,0.00,VWS V14.01,2013-11-20 13:38:00,
2013-11-20 07:39:00,50.0,38.3,24.92,WNW,292,0.0,0.0,64,0.00,,---,0.00,VWS V14.01,2013-11-20 13:39:00,
2013-11-20 07:42:00,50.2,38.9,24.92,WNW,292,0.0,0.0,65,0.00,,---,0.00,VWS V14.01,2013-11-20 13:42:00,
2013-11-20 07:43:00,50.4,39.1,24.92,WNW,292,0.0,0.0,65,0.00,,---,0.00,VWS V14.01,2013-11-20 13:43:00,
2013-11-20 07:45:00,50.4,38.7,24.95,WNW,292,0.0,0.0,64,0.00,,---,0.00,VWS V14.01,2013-11-20 13:45:00,
2013-11-20 07:46:00,50.4,38.7,24.95,WNW,292,0.0,0.0,64,0.00,,---,0.00,VWS V14.01,2013-11-20 13:46:00,
2013-11-20 07:48:00,50.5,38.8,24.95,WNW,292,0.0,0.0,64,0.00,,---,0.00,VWS V14.01,2013-11-20 13:48:00,
2013-11-20 07:49:00,50.5,38.8,24.95,WNW,292,0.0,0.0,64,0.00,,---,0.00,VWS V14.01,2013-11-20 13:49:00,
2013-11-20 07:53:00,50.9,39.6,24.95,WNW,292,0.0,0.0,65,0.00,,---,0.00,VWS V14.01,2013-11-20 13:53:00,
2013-11-20 07:55:00,50.9,39.6,24.95,WNW,292,0.0,0.0,65,0.00,,---,0.00,VWS V14.01,2013-11-20 13:55:00,
2013-11-20 07:56:00,51.1,39.7,24.95,WNW,292,0.0,0.0,65,0.00,,---,0.00,VWS V14.01,2013-11-20 13:56:00,
2013-11-20 07:58:00,50.9,39.2,24.95,WNW,292,0.0,0.0,64,0.00,,---,0.00,VWS V14.01,2013-11-20 13:58:00,
2013-11-20 08:00:00,50.7,38.6,24.95,WNW,292,0.0,0.0,63,0.00,,---,0.00,VWS V14.01,2013-11-20 14:00:00,
2013-11-20 08:02:00,50.5,38.4,24.95,WNW,292,0.0,0.0,63,0.00,,---,0.00,VWS V14.01,2013-11-20 14:02:00,
2013-11-20 08:03:00,50.4,38.3,24.95,WNW,292,0.0,0.0,63,0.00,,---,0.00,VWS V14.01,2013-11-20 14:03:00,
2013-11-20 08:04:00,50.4,38.3,24.95,WNW,292,0.0,0.0,63,0.00,,---,0.00,VWS V14.01,2013-11-20 14:04:00,
2013-11-20 08:06:00,50.4,38.7,24.95,WNW,292,0.0,0.0,64,0.00,,---,0.00,VWS V14.01,2013-11-20 14:06:00,
2013-11-20 08:07:00,50.4,38.7,24.95,WNW,292,0.0,0.0,64,0.00,,---,0.00,VWS V14.01,2013-11-20 14:07:00,
2013-11-20 08:08:00,50.4,38.7,24.95,WNW,292,0.0,0.0,64,0.00,,---,0.00,VWS V14.01,2013-11-20 14:08:00,
2013-11-20 08:13:00,50.4,38.7,24.95,WNW,292,0.0,0.0,64,0.00,,---,0.00,VWS V14.01,2013-11-20 14:13:00,
2013-11-20 08:14:00,50.5,39.2,24.95,WNW,292,0.0,0.0,65,0.00,,---,0.00,VWS V14.01,2013-11-20 14:14:00,
2013-11-20 08:15:00,50.5,39.2,24.95,WNW,292,0.0,0.0,65,0.00,,---,0.00,VWS V14.01,2013-11-20 14:15:00,
2013-11-20 08:17:00,50.5,39.2,24.95,WNW,292,0.0,0.0,65,0.00,,---,0.00,VWS V14.01,2013-11-20 14:17:00,
2013-11-20 08:20:00,50.7,39.4,24.95,WNW,292,0.0,0.0,65,0.00,,---,0.00,VWS V14.01,2013-11-20 14:20:00,
2013-11-20 08:22:00,50.9,40.0,24.95,WNW,292,0.0,0.0,66,0.00,,---,0.00,VWS V14.01,2013-11-20 14:22:00,
2013-11-20 08:24:00,51.1,40.1,24.95,WNW,292,0.0,0.0,66,0.00,,---,0.00,VWS V14.01,2013-11-20 14:24:00,
2013-11-20 08:27:00,51.8,41.2,24.95,WNW,292,0.0,0.0,67,0.00,,---,0.00,VWS V14.01,2013-11-20 14:27:00,
2013-11-20 08:29:00,52.2,41.9,24.95,WNW,292,0.0,0.0,68,0.00,,---,0.00,VWS V14.01,2013-11-20 14:29:00,
2013-11-20 08:30:00,52.3,42.1,24.95,WNW,292,0.0,0.0,68,0.00,,---,0.00,VWS V14.01,2013-11-20 14:30:00,
2013-11-20 08:32:00,52.7,42.5,24.95,WNW,292,0.0,0.0,68,0.00,,---,0.00,VWS V14.01,2013-11-20 14:32:00,
2013-11-20 08:34:00,52.9,42.6,24.95,WNW,292,0.0,0.0,68,0.00,,---,0.00,VWS V14.01,2013-11-20 14:34:00,
2013-11-20 08:37:00,53.4,43.5,24.95,NNW,329,0.0,0.0,69,0.00,,---,0.00,VWS V14.01,2013-11-20 14:37:00,
2013-11-20 08:38:00,53.8,43.5,24.95,NNW,338,0.0,0.0,68,0.00,,---,0.00,VWS V14.01,2013-11-20 14:38:00,
2013-11-20 08:40:00,54.3,44.4,24.95,NNW,346,2.7,3.6,69,0.00,,---,0.00,VWS V14.01,2013-11-20 14:40:00,
2013-11-20 08:41:00,54.3,44.4,24.95,North,353,4.0,4.0,69,0.00,,---,0.00,VWS V14.01,2013-11-20 14:41:00,
2013-11-20 08:42:00,54.5,44.5,24.95,North,353,0.0,4.0,69,0.00,,---,0.00,VWS V14.01,2013-11-20 14:42:00,
2013-11-20 08:46:00,55.2,45.2,24.95,North,353,0.0,0.0,69,0.00,,---,0.00,VWS V14.01,2013-11-20 14:46:00,
2013-11-20 08:49:00,55.6,45.6,24.95,North,0,0.0,0.0,69,0.00,,---,0.00,VWS V14.01,2013-11-20 14:49:00,
2013-11-20 08:52:00,55.9,45.5,24.95,North,0,0.0,0.0,68,0.00,,---,0.00,VWS V14.01,2013-11-20 14:52:00,
2013-11-20 08:53:00,56.1,45.7,24.95,North,0,0.0,0.0,68,0.00,,---,0.00,VWS V14.01,2013-11-20 14:53:00,
2013-11-20 08:55:00,56.1,45.7,24.95,North,0,0.0,0.0,68,0.00,,---,0.00,VWS V14.01,2013-11-20 14:55:00,
2013-11-20 08:56:00,56.3,45.9,24.95,North,0,0.0,0.0,68,0.00,,---,0.00,VWS V14.01,2013-11-20 14:56:00,
2013-11-20 08:58:00,56.3,45.9,24.95,North,0,0.0,0.0,68,0.00,,---,0.00,VWS V14.01,2013-11-20 14:58:00,
2013-11-20 09:00:00,56.5,46.1,24.95,North,0,0.0,0.0,68,0.00,,---,0.00,VWS V14.01,2013-11-20 15:00:00,
2013-11-20 09:02:00,56.7,46.2,24.95,North,0,0.0,0.0,68,0.00,,---,0.00,VWS V14.01,2013-11-20 15:02:00,
2013-11-20 09:05:00,56.8,46.4,24.95,North,0,0.0,0.0,68,0.00,,---,0.00,VWS V14.01,2013-11-20 15:05:00,
2013-11-20 09:09:00,57.0,45.8,24.95,NE,55,0.0,0.0,66,0.00,,---,0.00,VWS V14.01,2013-11-20 15:09:00,
2013-11-20 09:12:00,57.2,45.6,24.95,NE,55,0.0,0.0,65,0.00,,---,0.00,VWS V14.01,2013-11-20 15:12:00,
2013-11-20 09:13:00,57.2,45.6,24.95,NE,55,0.0,0.0,65,0.00,,---,0.00,VWS V14.01,2013-11-20 15:13:00,
2013-11-20 09:14:00,57.2,45.6,24.95,NE,55,0.0,0.0,65,0.00,,---,0.00,VWS V14.01,2013-11-20 15:14:00,
2013-11-20 09:15:00,57.2,45.6,24.95,NE,55,0.0,0.0,65,0.00,,---,0.00,VWS V14.01,2013-11-20 15:15:00,
2013-11-20 09:16:00,57.2,45.2,24.95,NE,55,0.0,0.0,64,0.00,,---,0.00,VWS V14.01,2013-11-20 15:16:00,
2013-11-20 09:17:00,57.2,45.2,24.95,NE,55,0.0,0.0,64,0.00,,---,0.00,VWS V14.01,2013-11-20 15:17:00,
2013-11-20 09:19:00,57.2,45.2,24.95,NE,55,0.0,0.0,64,0.00,,---,0.00,VWS V14.01,2013-11-20 15:19:00,
2013-11-20 09:21:00,57.2,45.2,24.95,NE,55,0.0,0.0,64,0.00,,---,0.00,VWS V14.01,2013-11-20 15:21:00,
2013-11-20 09:22:00,57.2,45.2,24.95,NE,55,0.0,0.0,64,0.00,,---,0.00,VWS V14.01,2013-11-20 15:22:00,
2013-11-20 09:23:00,57.2,45.2,24.95,NE,55,0.0,0.0,64,0.00,,---,0.00,VWS V14.01,2013-11-20 15:23:00,
2013-11-20 09:24:00,57.2,45.2,24.95,NE,55,0.0,0.0,64,0.00,,---,0.00,VWS V14.01,2013-11-20 15:24:00,
2013-11-20 09:25:00,57.4,45.3,24.95,NE,55,0.0,0.0,64,0.00,,---,0.00,VWS V14.01,2013-11-20 15:25:00,
2013-11-20 09:27:00,57.4,44.9,24.95,NE,55,0.0,0.0,63,0.00,,---,0.00,VWS V14.01,2013-11-20 15:27:00,
2013-11-20 09:28:00,57.6,45.1,24.95,NE,55,0.0,0.0,63,0.00,,---,0.00,VWS V14.01,2013-11-20 15:28:00,
2013-11-20 09:30:00,57.6,45.1,24.95,NE,55,0.0,0.0,63,0.00,,---,0.00,VWS V14.01,2013-11-20 15:30:00,
2013-11-20 09:33:00,57.6,44.7,24.95,East,99,0.0,0.0,62,0.00,,---,0.00,VWS V14.01,2013-11-20 15:33:00,
2013-11-20 09:35:00,57.9,43.2,24.95,East,98,0.0,0.0,58,0.00,,---,0.00,VWS V14.01,2013-11-20 15:35:00,
2013-11-20 09:36:00,57.9,42.3,24.95,East,86,3.6,3.6,56,0.00,,---,0.00,VWS V14.01,2013-11-20 15:36:00,
2013-11-20 09:38:00,58.1,41.6,24.95,East,87,3.1,3.1,54,0.00,,---,0.00,VWS V14.01,2013-11-20 15:38:00,
2013-11-20 09:40:00,58.5,41.9,24.95,East,99,3.1,4.9,54,0.00,,---,0.00,VWS V14.01,2013-11-20 15:40:00,
2013-11-20 09:44:00,59.2,37.9,24.95,ESE,114,4.0,5.4,45,0.00,,---,0.00,VWS V14.01,2013-11-20 15:44:00,
2013-11-20 09:46:00,59.5,38.2,24.95,ESE,111,3.1,4.5,45,0.00,,---,0.00,VWS V14.01,2013-11-20 15:46:00,
2013-11-20 09:48:00,59.7,36.6,24.95,SE,137,4.0,4.9,42,0.00,,---,0.00,VWS V14.01,2013-11-20 15:48:00,
2013-11-20 09:50:00,59.9,36.8,24.95,ESE,118,4.0,4.0,42,0.00,,---,0.00,VWS V14.01,2013-11-20 15:50:00,
2013-11-20 09:51:00,60.1,36.9,24.95,ESE,108,4.0,4.0,42,0.00,,---,0.00,VWS V14.01,2013-11-20 15:51:00,
2013-11-20 09:54:00,60.3,36.5,24.95,ESE,102,3.6,4.9,41,0.00,,---,0.00,VWS V14.01,2013-11-20 15:54:00,
2013-11-20 09:57:00,60.6,35.5,24.95,ESE,106,4.0,4.0,39,0.00,,---,0.00,VWS V14.01,2013-11-20 15:57:00,
2013-11-20 10:01:00,61.0,35.2,24.95,ESE,102,0.0,0.0,38,0.00,,---,0.00,VWS V14.01,2013-11-20 16:01:00,
2013-11-20 10:02:00,61.0,35.2,24.95,East,99,0.0,0.0,38,0.00,,---,0.00,VWS V14.01,2013-11-20 16:02:00,
2013-11-20 10:05:00,61.2,35.4,24.95,South,186,2.2,4.9,38,0.00,,---,0.00,VWS V14.01,2013-11-20 16:05:00,
2013-11-20 10:08:00,61.3,35.5,24.95,SSE,156,2.2,3.6,38,0.00,,---,0.00,VWS V14.01,2013-11-20 16:08:00,
2013-11-20 10:09:00,61.3,35.5,24.95,SSE,147,3.1,3.1,38,0.00,,---,0.00,VWS V14.01,2013-11-20 16:09:00,
2013-11-20 10:12:00,61.5,35.0,24.95,South,169,0.0,3.1,37,0.00,,---,0.00,VWS V14.01,2013-11-20 16:12:00,
2013-11-20 10:13:00,61.7,35.2,24.95,South,170,3.6,3.6,37,0.00,,---,0.00,VWS V14.01,2013-11-20 16:13:00,
2013-11-20 10:14:00,61.7,35.9,24.95,South,174,2.2,4.0,38,0.00,,---,0.00,VWS V14.01,2013-11-20 16:14:00,
2013-11-20 10:16:00,61.9,35.3,24.95,South,191,3.6,3.6,37,0.00,,---,0.00,VWS V14.01,2013-11-20 16:16:00,
2013-11-20 10:18:00,62.2,35.0,24.95,SE,134,4.0,4.0,36,0.00,,---,0.00,VWS V14.01,2013-11-20 16:18:00,
2013-11-20 10:19:00,62.4,35.1,24.95,ESE,119,2.7,4.9,36,0.00,,---,0.00,VWS V14.01,2013-11-20 16:19:00,
2013-11-20 10:20:00,62.4,34.4,24.95,ESE,116,2.7,3.6,35,0.00,,---,0.00,VWS V14.01,2013-11-20 16:20:00,
2013-11-20 10:24:00,62.6,34.6,24.95,East,91,0.0,0.0,35,0.00,,---,0.00,VWS V14.01,2013-11-20 16:24:00,
2013-11-20 10:26:00,62.6,34.6,24.95,North,353,0.0,0.0,35,0.00,,---,0.00,VWS V14.01,2013-11-20 16:26:00,
2013-11-20 10:28:00,62.8,34.8,24.95,West,266,3.1,3.6,35,0.00,,---,0.00,VWS V14.01,2013-11-20 16:28:00,
2013-11-20 10:30:00,63.1,35.1,24.95,SW,224,3.6,4.0,35,0.00,,---,0.00,VWS V14.01,2013-11-20 16:30:00,
2013-11-20 10:33:00,63.5,34.7,24.95,WNW,285,5.4,5.4,34,0.00,,---,0.00,VWS V14.01,2013-11-20 16:33:00,
2013-11-20 10:34:00,64.0,35.1,24.95,SW,226,4.0,4.0,34,0.00,,---,0.00,VWS V14.01,2013-11-20 16:34:00,
2013-11-20 10:37:00,64.4,34.7,24.95,North,357,8.7,8.7,33,0.00,,---,0.00,VWS V14.01,2013-11-20 16:37:00,
2013-11-20 10:38:00,64.9,32.8,24.95,West,267,5.4,5.8,30,0.00,,---,0.00,VWS V14.01,2013-11-20 16:38:00,
2013-11-20 10:40:00,65.1,30.3,24.95,West,276,6.3,7.6,27,0.00,,---,0.00,VWS V14.01,2013-11-20 16:40:00,
2013-11-20 10:41:00,65.3,30.5,24.95,West,269,8.1,8.1,27,0.00,,---,0.00,VWS V14.01,2013-11-20 16:41:00,
2013-11-20 10:42:00,65.5,30.6,24.95,WNW,288,8.1,8.1,27,0.00,,---,0.00,VWS V14.01,2013-11-20 16:42:00,
2013-11-20 10:44:00,65.5,30.6,24.95,West,266,3.6,8.1,27,0.00,,---,0.00,VWS V14.01,2013-11-20 16:44:00,
2013-11-20 10:47:00,65.8,31.0,24.95,WNW,298,2.7,4.0,27,0.00,,---,0.00,VWS V14.01,2013-11-20 16:47:00,
2013-11-20 10:50:00,66.4,29.5,24.95,West,274,5.8,7.6,25,0.00,,---,0.00,VWS V14.01,2013-11-20 16:50:00,
2013-11-20 10:54:00,66.7,30.8,24.95,NW,305,5.4,5.4,26,0.00,,---,0.00,VWS V14.01,2013-11-20 16:54:00,
2013-11-20 10:55:00,66.9,31.0,24.95,WNW,300,4.0,6.3,26,0.00,,---,0.00,VWS V14.01,2013-11-20 16:55:00,
2013-11-20 10:58:00,67.3,31.2,24.95,West,264,4.0,4.0,26,0.00,,---,0.00,VWS V14.01,2013-11-20 16:58:00,
2013-11-20 11:00:00,67.5,31.4,24.95,SW,234,5.4,5.4,26,0.00,,---,0.00,VWS V14.01,2013-11-20 17:00:00,
2013-11-20 11:01:00,67.5,31.4,24.95,WSW,238,3.1,5.4,26,0.00,,---,0.00,VWS V14.01,2013-11-20 17:01:00,
2013-11-20 11:02:00,67.5,31.4,24.95,WSW,239,2.7,4.0,26,0.00,,---,0.00,VWS V14.01,2013-11-20 17:02:00,
2013-11-20 11:03:00,67.5,31.4,24.95,WSW,253,3.6,3.6,26,0.00,,---,0.00,VWS V14.01,2013-11-20 17:03:00,
2013-11-20 11:05:00,67.5,30.4,24.95,NNE,14,2.7,5.4,25,0.00,,---,0.00,VWS V14.01,2013-11-20 17:05:00,
2013-11-20 11:08:00,67.5,30.4,24.95,SW,214,4.9,4.9,25,0.00,,---,0.00,VWS V14.01,2013-11-20 17:08:00,
2013-11-20 11:09:00,67.5,30.4,24.95,WNW,296,3.1,5.4,25,0.00,,---,0.00,VWS V14.01,2013-11-20 17:09:00,
2013-11-20 11:11:00,67.6,30.6,24.95,NE,52,3.1,4.0,25,0.00,,---,0.00,VWS V14.01,2013-11-20 17:11:00,
2013-11-20 11:12:00,67.6,30.6,24.95,West,273,2.7,5.4,25,0.00,,---,0.00,VWS V14.01,2013-11-20 17:12:00,
2013-11-20 11:13:00,67.8,30.7,24.95,WNW,289,3.6,6.3,25,0.00,,---,0.00,VWS V14.01,2013-11-20 17:13:00,
2013-11-20 11:14:00,67.8,30.7,24.95,West,265,3.6,5.4,25,0.00,,---,0.00,VWS V14.01,2013-11-20 17:14:00,
2013-11-20 11:15:00,67.8,29.7,24.95,WNW,285,6.3,6.3,24,0.00,,---,0.00,VWS V14.01,2013-11-20 17:15:00,
2013-11-20 11:19:00,68.0,29.9,24.95,WNW,297,3.6,6.3,24,0.00,,---,0.00,VWS V14.01,2013-11-20 17:19:00,
2013-11-20 11:20:00,68.0,29.9,24.95,SW,214,3.6,5.8,24,0.00,,---,0.00,VWS V14.01,2013-11-20 17:20:00,
2013-11-20 11:21:00,68.2,30.0,24.95,SW,229,6.3,6.3,24,0.00,,---,0.00,VWS V14.01,2013-11-20 17:21:00,
2013-11-20 11:23:00,68.2,30.0,24.95,West,267,5.8,6.3,24,0.00,,---,0.00,VWS V14.01,2013-11-20 17:23:00,
2013-11-20 11:25:00,68.5,29.3,24.95,East,97,3.1,4.0,23,0.00,,---,0.00,VWS V14.01,2013-11-20 17:25:00,
2013-11-20 11:26:00,68.5,29.3,24.95,West,262,3.1,5.8,23,0.00,,---,0.00,VWS V14.01,2013-11-20 17:26:00,
2013-11-20 11:27:00,68.5,29.3,24.95,WSW,253,2.7,4.0,23,0.00,,---,0.00,VWS V14.01,2013-11-20 17:27:00,
2013-11-20 11:32:00,68.5,29.3,24.95,South,191,2.7,3.6,23,0.00,,---,0.00,VWS V14.01,2013-11-20 17:32:00,
2013-11-20 11:34:00,68.5,29.3,24.95,SW,225,2.7,4.9,23,0.00,,---,0.00,VWS V14.01,2013-11-20 17:34:00,
2013-11-20 11:36:00,68.7,29.5,24.95,SSW,198,4.9,5.4,23,0.00,,---,0.00,VWS V14.01,2013-11-20 17:36:00,
2013-11-20 11:37:00,68.7,29.5,24.95,South,169,2.7,5.4,23,0.00,,---,0.00,VWS V14.01,2013-11-20 17:37:00,
2013-11-20 11:39:00,68.9,29.6,24.95,SE,131,3.1,6.3,23,0.00,,---,0.00,VWS V14.01,2013-11-20 17:39:00,
2013-11-20 11:40:00,68.9,29.6,24.95,SW,231,3.1,4.9,23,0.00,,---,0.00,VWS V14.01,2013-11-20 17:40:00,
2013-11-20 11:41:00,68.9,29.6,24.95,South,187,5.8,5.8,23,0.00,,---,0.00,VWS V14.01,2013-11-20 17:41:00,
2013-11-20 11:43:00,68.9,29.6,24.95,WNW,298,5.8,5.8,23,0.00,,---,0.00,VWS V14.01,2013-11-20 17:43:00,
2013-11-20 11:47:00,69.1,29.8,24.92,West,276,5.4,10.1,23,0.00,,---,0.00,VWS V14.01,2013-11-20 17:47:00,
2013-11-20 11:48:00,69.3,29.9,24.92,West,273,3.1,6.3,23,0.00,,---,0.00,VWS V14.01,2013-11-20 17:48:00,
2013-11-20 11:50:00,69.4,29.0,24.92,SW,234,8.7,8.7,22,0.00,,---,0.00,VWS V14.01,2013-11-20 17:50:00,
2013-11-20 11:51:00,69.4,29.0,24.92,WNW,301,5.8,12.8,22,0.00,,---,0.00,VWS V14.01,2013-11-20 17:51:00,
2013-11-20 11:53:00,69.6,29.1,24.92,West,270,7.2,10.5,22,0.00,,---,0.00,VWS V14.01,2013-11-20 17:53:00,
2013-11-20 11:56:00,69.6,29.1,24.92,WNW,299,8.1,10.5,22,0.00,,---,0.00,VWS V14.01,2013-11-20 17:56:00,
2013-11-20 11:59:00,69.6,29.1,24.92,NW,305,8.3,10.5,22,0.00,,---,0.00,VWS V14.01,2013-11-20 17:59:00,
2013-11-20 12:01:00,69.6,29.1,24.92,WNW,296,6.3,8.3,22,0.00,,---,0.00,VWS V14.01,2013-11-20 18:01:00,
2013-11-20 12:06:00,70.0,25.9,24.92,NW,307,4.9,6.3,19,0.00,,---,0.00,VWS V14.01,2013-11-20 18:06:00,
2013-11-20 12:08:00,70.0,25.9,24.92,WNW,288,8.1,10.5,19,0.00,,---,0.00,VWS V14.01,2013-11-20 18:08:00,
2013-11-20 12:09:00,70.0,25.9,24.92,WNW,284,7.2,8.3,19,0.00,,---,0.00,VWS V14.01,2013-11-20 18:09:00,
2013-11-20 12:10:00,70.0,25.9,24.92,WNW,301,7.6,8.7,19,0.00,,---,0.00,VWS V14.01,2013-11-20 18:10:00,
2013-11-20 12:12:00,70.0,25.9,24.92,NW,321,6.3,8.3,19,0.00,,---,0.00,VWS V14.01,2013-11-20 18:12:00,
2013-11-20 12:14:00,69.8,29.3,24.92,NW,323,8.3,8.3,22,0.00,,---,0.00,VWS V14.01,2013-11-20 18:14:00,
2013-11-20 12:15:00,69.8,29.3,24.92,NNE,12,3.1,8.3,22,0.00,,---,0.00,VWS V14.01,2013-11-20 18:15:00,
2013-11-20 12:16:00,69.8,29.3,24.92,WNW,285,7.6,7.6,22,0.00,,---,0.00,VWS V14.01,2013-11-20 18:16:00,
2013-11-20 12:19:00,70.2,29.6,24.92,SW,225,3.6,5.4,22,0.00,,---,0.00,VWS V14.01,2013-11-20 18:19:00,
2013-11-20 12:22:00,70.5,26.3,24.92,WSW,237,5.8,5.8,19,0.00,,---,0.00,VWS V14.01,2013-11-20 18:22:00,
2013-11-20 12:25:00,70.7,26.5,24.92,WSW,250,5.4,8.7,19,0.00,,---,0.00,VWS V14.01,2013-11-20 18:25:00,
2013-11-20 12:26:00,70.7,26.5,24.92,SW,221,5.8,7.6,19,0.00,,---,0.00,VWS V14.01,2013-11-20 18:26:00,
2013-11-20 12:27:00,70.9,26.6,24.92,WSW,256,5.8,6.7,19,0.00,,---,0.00,VWS V14.01,2013-11-20 18:27:00,
2013-11-20 12:29:00,70.9,26.6,24.92,NW,311,6.3,6.7,19,0.00,,---,0.00,VWS V14.01,2013-11-20 18:29:00,
2013-11-20 12:32:00,71.1,26.8,24.92,WSW,255,5.4,5.8,19,0.00,,---,0.00,VWS V14.01,2013-11-20 18:32:00,
2013-11-20 12:33:00,71.2,26.9,24.92,West,262,5.4,8.3,19,0.00,,---,0.00,VWS V14.01,2013-11-20 18:33:00,
2013-11-20 12:34:00,71.4,27.0,24.92,SW,234,5.8,8.7,19,0.00,,---,0.00,VWS V14.01,2013-11-20 18:34:00,
2013-11-20 12:36:00,71.6,27.2,24.92,SW,231,5.8,5.8,19,0.00,,---,0.00,VWS V14.01,2013-11-20 18:36:00,
2013-11-20 12:37:00,71.8,27.3,24.92,West,265,8.3,8.3,19,0.00,,---,0.00,VWS V14.01,2013-11-20 18:37:00,
2013-11-20 12:40:00,72.0,23.4,24.92,WNW,297,8.7,9.6,16,0.00,,---,0.00,VWS V14.01,2013-11-20 18:40:00,
2013-11-20 12:41:00,72.0,23.4,24.92,North,0,7.6,8.7,16,0.00,,---,0.00,VWS V14.01,2013-11-20 18:41:00,
2013-11-20 12:43:00,72.1,23.5,24.92,WNW,299,8.1,8.3,16,0.00,,---,0.00,VWS V14.01,2013-11-20 18:43:00,
2013-11-20 12:44:00,72.1,23.5,24.92,WSW,245,5.8,8.7,16,0.00,,---,0.00,VWS V14.01,2013-11-20 18:44:00,
2013-11-20 12:46:00,72.1,23.5,24.92,West,270,11.0,11.0,16,0.00,,---,0.00,VWS V14.01,2013-11-20 18:46:00,
2013-11-20 12:50:00,72.3,23.6,24.92,NW,314,11.0,11.0,16,0.00,,---,0.00,VWS V14.01,2013-11-20 18:50:00,
2013-11-20 12:51:00,72.3,23.6,24.92,NW,314,12.3,12.3,16,0.00,,---,0.00,VWS V14.01,2013-11-20 18:51:00,
2013-11-20 12:53:00,72.3,23.6,24.92,WNW,292,11.0,15.4,16,0.00,,---,0.00,VWS V14.01,2013-11-20 18:53:00,
2013-11-20 12:55:00,72.3,23.6,24.92,WNW,284,10.5,13.2,16,0.00,,---,0.00,VWS V14.01,2013-11-20 18:55:00,
2013-11-20 12:57:00,72.3,23.6,24.92,NW,309,8.3,10.5,16,0.00,,---,0.00,VWS V14.01,2013-11-20 18:57:00,
2013-11-20 12:59:00,72.5,23.8,24.92,WNW,295,5.4,8.7,16,0.00,,---,0.00,VWS V14.01,2013-11-20 18:59:00,
2013-11-20 13:00:00,72.5,23.8,24.89,WNW,302,5.4,8.1,16,0.00,,---,0.00,VWS V14.01,2013-11-20 19:00:00,
2013-11-20 13:01:00,72.7,23.9,24.89,WNW,289,8.3,8.3,16,0.00,,---,0.00,VWS V14.01,2013-11-20 19:01:00,
2013-11-20 13:04:00,72.9,24.1,24.89,WNW,288,5.4,8.3,16,0.00,,---,0.00,VWS V14.01,2013-11-20 19:04:00,
2013-11-20 13:07:00,73.0,24.2,24.89,WNW,292,8.3,11.0,16,0.00,,---,0.00,VWS V14.01,2013-11-20 19:07:00,
2013-11-20 13:10:00,73.0,24.2,24.89,WNW,290,10.1,12.8,16,0.00,,---,0.00,VWS V14.01,2013-11-20 19:10:00,
2013-11-20 13:12:00,73.0,24.2,24.89,West,276,10.5,11.0,16,0.00,,---,0.00,VWS V14.01,2013-11-20 19:12:00,
2013-11-20 13:13:00,73.2,24.4,24.89,West,274,10.5,11.0,16,0.00,,---,0.00,VWS V14.01,2013-11-20 19:13:00,
2013-11-20 13:16:00,73.6,24.7,24.89,NW,307,10.5,12.8,16,0.00,,---,0.00,VWS V14.01,2013-11-20 19:16:00,
2013-11-20 13:18:00,73.8,24.8,24.89,West,281,8.1,11.0,16,0.00,,---,0.00,VWS V14.01,2013-11-20 19:18:00,
2013-11-20 13:19:00,73.8,24.8,24.89,WNW,289,8.3,10.5,16,0.00,,---,0.00,VWS V14.01,2013-11-20 19:19:00,
2013-11-20 13:21:00,73.9,25.0,24.89,West,272,10.5,10.5,16,0.00,,---,0.00,VWS V14.01,2013-11-20 19:21:00,
2013-11-20 13:23:00,74.1,25.1,24.89,West,272,11.9,17.4,16,0.00,,---,0.00,VWS V14.01,2013-11-20 19:23:00,
2013-11-20 13:24:00,74.1,25.1,24.89,West,261,8.1,12.8,16,0.00,,---,0.00,VWS V14.01,2013-11-20 19:24:00,
2013-11-20 13:28:00,74.3,25.2,24.89,West,277,10.1,13.2,16,0.00,,---,0.00,VWS V14.01,2013-11-20 19:28:00,
2013-11-20 13:30:00,74.5,25.4,24.89,WSW,239,10.5,14.1,16,0.00,,---,0.00,VWS V14.01,2013-11-20 19:30:00,
2013-11-20 13:31:00,74.5,25.4,24.89,WNW,297,6.7,10.5,16,0.00,,---,0.00,VWS V14.01,2013-11-20 19:31:00,
2013-11-20 13:33:00,74.5,25.4,24.89,WNW,294,11.0,11.0,16,0.00,,---,0.00,VWS V14.01,2013-11-20 19:33:00,
2013-11-20 13:35:00,74.3,25.2,24.89,WNW,292,6.3,11.0,16,0.00,,---,0.00,VWS V14.01,2013-11-20 19:35:00,
2013-11-20 13:37:00,74.1,25.1,24.89,WNW,292,7.6,11.0,16,0.00,,---,0.00,VWS V14.01,2013-11-20 19:37:00,
2013-11-20 13:38:00,73.9,25.0,24.89,NW,308,5.8,7.6,16,0.00,,---,0.00,VWS V14.01,2013-11-20 19:38:00,
2013-11-20 13:42:00,73.9,25.0,24.89,WNW,295,11.4,15.4,16,0.00,,---,0.00,VWS V14.01,2013-11-20 19:42:00,
2013-11-20 13:43:00,73.9,25.0,24.89,WNW,282,8.3,8.3,16,0.00,,---,0.00,VWS V14.01,2013-11-20 19:43:00,
2013-11-20 13:45:00,74.1,25.1,24.89,West,266,8.3,10.5,16,0.00,,---,0.00,VWS V14.01,2013-11-20 19:45:00,
2013-11-20 13:49:00,74.3,25.2,24.89,NW,306,10.5,13.2,16,0.00,,---,0.00,VWS V14.01,2013-11-20 19:49:00,
2013-11-20 13:50:00,74.3,25.2,24.89,WNW,297,7.6,11.0,16,0.00,,---,0.00,VWS V14.01,2013-11-20 19:50:00,
2013-11-20 13:51:00,74.3,25.2,24.89,WNW,290,11.0,12.8,16,0.00,,---,0.00,VWS V14.01,2013-11-20 19:51:00,
2013-11-20 13:53:00,74.3,25.2,24.89,NW,322,5.4,10.1,16,0.00,,---,0.00,VWS V14.01,2013-11-20 19:53:00,
2013-11-20 13:54:00,74.3,25.2,24.89,WSW,249,3.1,5.4,16,0.00,,---,0.00,VWS V14.01,2013-11-20 19:54:00,
2013-11-20 13:56:00,74.1,25.1,24.89,NNW,327,10.5,11.4,16,0.00,,---,0.00,VWS V14.01,2013-11-20 19:56:00,
2013-11-20 14:00:00,73.9,25.0,24.89,NW,309,6.3,6.3,16,0.00,,---,0.00,VWS V14.01,2013-11-20 20:00:00,
2013-11-20 14:01:00,73.8,24.8,24.86,West,264,10.5,12.8,16,0.00,,---,0.00,VWS V14.01,2013-11-20 20:01:00,
2013-11-20 14:03:00,73.9,25.0,24.86,West,260,5.4,11.0,16,0.00,,---,0.00,VWS V14.01,2013-11-20 20:03:00,
2013-11-20 14:04:00,74.1,25.1,24.86,West,265,12.3,12.3,16,0.00,,---,0.00,VWS V14.01,2013-11-20 20:04:00,
2013-11-20 14:07:00,74.3,25.2,24.86,NW,307,6.3,10.5,16,0.00,,---,0.00,VWS V14.01,2013-11-20 20:07:00,
2013-11-20 14:08:00,74.3,25.2,24.86,West,266,8.1,11.0,16,0.00,,---,0.00,VWS V14.01,2013-11-20 20:08:00,
2013-11-20 14:10:00,74.3,25.2,24.86,West,266,11.0,11.0,16,0.00,,---,0.00,VWS V14.01,2013-11-20 20:10:00,
2013-11-20 14:13:00,74.3,25.2,24.86,WNW,292,11.0,13.6,16,0.00,,---,0.00,VWS V14.01,2013-11-20 20:13:00,
2013-11-20 14:14:00,74.3,25.2,24.86,SSW,205,5.4,11.0,16,0.00,,---,0.00,VWS V14.01,2013-11-20 20:14:00,
2013-11-20 14:16:00,74.3,25.2,24.86,West,264,8.7,8.7,16,0.00,,---,0.00,VWS V14.01,2013-11-20 20:16:00,
2013-11-20 14:17:00,74.3,25.2,24.86,West,268,8.3,10.1,16,0.00,,---,0.00,VWS V14.01,2013-11-20 20:17:00,
2013-11-20 14:18:00,74.3,25.2,24.86,WNW,291,8.7,10.5,16,0.00,,---,0.00,VWS V14.01,2013-11-20 20:18:00,
2013-11-20 14:21:00,74.5,25.4,24.86,WNW,298,8.3,11.0,16,0.00,,---,0.00,VWS V14.01,2013-11-20 20:21:00,
2013-11-20 14:22:00,74.3,25.2,24.86,WNW,300,10.5,11.9,16,0.00,,---,0.00,VWS V14.01,2013-11-20 20:22:00,
2013-11-20 14:23:00,74.1,25.1,24.86,West,280,5.8,10.5,16,0.00,,---,0.00,VWS V14.01,2013-11-20 20:23:00,
2013-11-20 14:25:00,73.9,25.0,24.86,West,274,5.8,9.6,16,0.00,,---,0.00,VWS V14.01,2013-11-20 20:25:00,
2013-11-20 14:28:00,73.8,24.8,24.86,WNW,294,8.7,10.5,16,0.00,,---,0.00,VWS V14.01,2013-11-20 20:28:00,
2013-11-20 14:29:00,73.8,24.8,24.86,WNW,299,15.0,15.0,16,0.00,,---,0.00,VWS V14.01,2013-11-20 20:29:00,
2013-11-20 14:31:00,73.8,24.8,24.86,WNW,300,10.1,10.1,16,0.00,,---,0.00,VWS V14.01,2013-11-20 20:31:00,
2013-11-20 14:35:00,73.8,24.8,24.86,WNW,282,6.3,11.0,16,0.00,,---,0.00,VWS V14.01,2013-11-20 20:35:00,
2013-11-20 14:36:00,73.8,24.8,24.86,West,277,3.6,7.6,16,0.00,,---,0.00,VWS V14.01,2013-11-20 20:36:00,
2013-11-20 14:39:00,73.9,25.0,24.86,WNW,297,7.6,10.1,16,0.00,,---,0.00,VWS V14.01,2013-11-20 20:39:00,
2013-11-20 14:40:00,73.9,25.0,24.86,WNW,292,10.5,11.0,16,0.00,,---,0.00,VWS V14.01,2013-11-20 20:40:00,
2013-11-20 14:42:00,73.9,25.0,24.86,WNW,282,8.1,10.5,16,0.00,,---,0.00,VWS V14.01,2013-11-20 20:42:00,
2013-11-20 14:43:00,73.9,25.0,24.86,West,272,10.1,10.5,16,0.00,,---,0.00,VWS V14.01,2013-11-20 20:43:00,
2013-11-20 14:45:00,74.3,25.2,24.86,West,271,5.8,10.1,16,0.00,,---,0.00,VWS V14.01,2013-11-20 20:45:00,
2013-11-20 14:46:00,74.3,25.2,24.86,WNW,290,5.8,10.5,16,0.00,,---,0.00,VWS V14.01,2013-11-20 20:46:00,
2013-11-20 14:47:00,74.5,25.4,24.86,WNW,295,11.0,12.3,16,0.00,,---,0.00,VWS V14.01,2013-11-20 20:47:00,
2013-11-20 14:49:00,74.5,25.4,24.86,WNW,286,13.2,13.2,16,0.00,,---,0.00,VWS V14.01,2013-11-20 20:49:00,
2013-11-20 14:51:00,74.3,25.2,24.86,WNW,296,6.3,8.3,16,0.00,,---,0.00,VWS V14.01,2013-11-20 20:51:00,
2013-11-20 14:52:00,74.3,25.2,24.86,WNW,284,11.0,11.0,16,0.00,,---,0.00,VWS V14.01,2013-11-20 20:52:00,
2013-11-20 14:56:00,74.1,25.1,24.86,WNW,294,8.7,11.0,16,0.00,,---,0.00,VWS V14.01,2013-11-20 20:56:00,
2013-11-20 14:57:00,73.9,25.0,24.86,WNW,299,8.3,8.7,16,0.00,,---,0.00,VWS V14.01,2013-11-20 20:57:00,
2013-11-20 14:58:00,73.9,25.0,24.86,WNW,300,10.5,11.9,16,0.00,,---,0.00,VWS V14.01,2013-11-20 20:58:00,
2013-11-20 14:59:00,73.9,25.0,24.86,NW,318,10.1,11.0,16,0.00,,---,0.00,VWS V14.01,2013-11-20 20:59:00,
2013-11-20 15:00:00,73.9,25.0,24.86,NNW,334,8.1,12.8,16,0.00,,---,0.00,VWS V14.01,2013-11-20 21:00:00,
2013-11-20 15:03:00,73.9,25.0,24.86,NW,322,8.1,8.3,16,0.00,,---,0.00,VWS V14.01,2013-11-20 21:03:00,
2013-11-20 15:06:00,73.9,25.0,24.86,NW,308,15.0,17.0,16,0.00,,---,0.00,VWS V14.01,2013-11-20 21:06:00,
2013-11-20 15:09:00,73.8,24.8,24.86,NNW,335,8.3,10.1,16,0.00,,---,0.00,VWS V14.01,2013-11-20 21:09:00,
2013-11-20 15:11:00,73.8,24.8,24.86,NW,323,14.1,14.1,16,0.00,,---,0.00,VWS V14.01,2013-11-20 21:11:00,
2013-11-20 15:13:00,73.8,24.8,24.86,NNW,328,9.2,14.1,16,0.00,,---,0.00,VWS V14.01,2013-11-20 21:13:00,
2013-11-20 15:16:00,73.4,24.5,24.86,NW,316,6.3,8.3,16,0.00,,---,0.00,VWS V14.01,2013-11-20 21:16:00,
2013-11-20 15:17:00,73.4,24.5,24.86,NW,318,8.3,10.5,16,0.00,,---,0.00,VWS V14.01,2013-11-20 21:17:00,
2013-11-20 15:19:00,73.4,24.5,24.86,NNW,331,6.3,8.7,16,0.00,,---,0.00,VWS V14.01,2013-11-20 21:19:00,
2013-11-20 15:21:00,73.4,24.5,24.86,NW,310,10.1,10.5,16,0.00,,---,0.00,VWS V14.01,2013-11-20 21:21:00,
2013-11-20 15:24:00,73.4,24.5,24.86,NW,312,8.3,10.1,16,0.00,,---,0.00,VWS V14.01,2013-11-20 21:24:00,
2013-11-20 15:27:00,73.6,24.7,24.86,NNW,337,8.1,14.5,16,0.00,,---,0.00,VWS V14.01,2013-11-20 21:27:00,
2013-11-20 15:30:00,73.4,24.5,24.86,NW,317,5.8,8.1,16,0.00,,---,0.00,VWS V14.01,2013-11-20 21:30:00,
2013-11-20 15:32:00,73.6,24.7,24.86,NNW,327,7.6,13.2,16,0.00,,---,0.00,VWS V14.01,2013-11-20 21:32:00,
2013-11-20 15:35:00,73.4,24.5,24.86,NW,325,8.7,15.4,16,0.00,,---,0.00,VWS V14.01,2013-11-20 21:35:00,
2013-11-20 15:36:00,73.4,24.5,24.86,WNW,288,8.7,8.7,16,0.00,,---,0.00,VWS V14.01,2013-11-20 21:36:00,
2013-11-20 15:38:00,73.4,24.5,24.86,NW,306,11.0,11.9,16,0.00,,---,0.00,VWS V14.01,2013-11-20 21:38:00,
2013-11-20 15:41:00,73.4,24.5,24.86,NW,304,10.5,11.0,16,0.00,,---,0.00,VWS V14.01,2013-11-20 21:41:00,
2013-11-20 15:42:00,73.4,24.5,24.86,NW,315,12.8,12.8,16,0.00,,---,0.00,VWS V14.01,2013-11-20 21:42:00,
2013-11-20 15:43:00,73.4,24.5,24.86,NNW,345,8.1,12.8,16,0.00,,---,0.00,VWS V14.01,2013-11-20 21:43:00,
2013-11-20 15:45:00,73.4,24.5,24.86,NW,318,5.8,8.3,16,0.00,,---,0.00,VWS V14.01,2013-11-20 21:45:00,
2013-11-20 15:48:00,73.4,24.5,24.86,NW,316,9.6,9.6,16,0.00,,---,0.00,VWS V14.01,2013-11-20 21:48:00,
2013-11-20 15:49:00,73.4,24.5,24.86,NW,322,8.7,11.0,16,0.00,,---,0.00,VWS V14.01,2013-11-20 21:49:00,
2013-11-20 15:50:00,73.4,24.5,24.86,NW,317,6.3,8.7,16,0.00,,---,0.00,VWS V14.01,2013-11-20 21:50:00,
2013-11-20 15:54:00,73.2,24.4,24.86,WNW,302,7.6,10.5,16,0.00,,---,0.00,VWS V14.01,2013-11-20 21:54:00,
2013-11-20 15:55:00,73.2,24.4,24.86,NW,305,8.3,10.5,16,0.00,,---,0.00,VWS V14.01,2013-11-20 21:55:00,
2013-11-20 15:56:00,73.2,24.4,24.86,NW,319,10.1,10.5,16,0.00,,---,0.00,VWS V14.01,2013-11-20 21:56:00,
2013-11-20 15:57:00,73.2,24.4,24.86,NW,326,8.3,11.0,16,0.00,,---,0.00,VWS V14.01,2013-11-20 21:57:00,
2013-11-20 16:02:00,73.0,24.2,24.86,WNW,294,5.4,10.1,16,0.00,,---,0.00,VWS V14.01,2013-11-20 22:02:00,
2013-11-20 16:03:00,72.9,24.1,24.86,WNW,289,8.3,8.3,16,0.00,,---,0.00,VWS V14.01,2013-11-20 22:03:00,
2013-11-20 16:05:00,72.9,24.1,24.86,NW,312,6.3,8.3,16,0.00,,---,0.00,VWS V14.01,2013-11-20 22:05:00,
2013-11-20 16:07:00,72.9,24.1,24.86,WNW,303,8.3,11.0,16,0.00,,---,0.00,VWS V14.01,2013-11-20 22:07:00,
2013-11-20 16:09:00,72.7,23.9,24.86,NW,319,9.6,9.6,16,0.00,,---,0.00,VWS V14.01,2013-11-20 22:09:00,
2013-11-20 16:10:00,72.5,23.8,24.86,WNW,296,8.3,10.5,16,0.00,,---,0.00,VWS V14.01,2013-11-20 22:10:00,
2013-11-20 16:12:00,72.1,23.5,24.86,NNW,331,8.3,10.1,16,0.00,,---,0.00,VWS V14.01,2013-11-20 22:12:00,
2013-11-20 16:16:00,72.0,23.4,24.86,WNW,300,7.6,8.7,16,0.00,,---,0.00,VWS V14.01,2013-11-20 22:16:00,
2013-11-20 16:17:00,72.0,23.4,24.86,WNW,301,5.8,8.3,16,0.00,,---,0.00,VWS V14.01,2013-11-20 22:17:00,
2013-11-20 16:22:00,72.1,23.5,24.86,NW,323,6.3,10.5,16,0.00,,---,0.00,VWS V14.01,2013-11-20 22:22:00,
2013-11-20 16:27:00,72.3,23.6,24.86,West,277,5.8,5.8,16,0.00,,---,0.00,VWS V14.01,2013-11-20 22:27:00,
2013-11-20 16:30:00,72.3,23.6,24.86,WNW,298,6.3,7.6,16,0.00,,---,0.00,VWS V14.01,2013-11-20 22:30:00,
2013-11-20 16:31:00,72.1,23.5,24.86,NW,307,5.8,8.7,16,0.00,,---,0.00,VWS V14.01,2013-11-20 22:31:00,
2013-11-20 16:32:00,72.0,23.4,24.86,NW,311,5.8,6.3,16,0.00,,---,0.00,VWS V14.01,2013-11-20 22:32:00,
2013-11-20 16:33:00,72.0,23.4,24.86,NW,319,6.3,6.3,16,0.00,,---,0.00,VWS V14.01,2013-11-20 22:33:00,
2013-11-20 16:35:00,71.6,23.1,24.86,WNW,286,8.1,8.3,16,0.00,,---,0.00,VWS V14.01,2013-11-20 22:35:00,
2013-11-20 16:37:00,71.4,24.4,24.86,NW,306,6.3,8.3,17,0.00,,---,0.00,VWS V14.01,2013-11-20 22:37:00,
2013-11-20 16:39:00,71.2,24.2,24.86,WNW,286,5.8,8.1,17,0.00,,---,0.00,VWS V14.01,2013-11-20 22:39:00,
2013-11-20 16:41:00,71.2,24.2,24.86,WNW,299,4.9,6.7,17,0.00,,---,0.00,VWS V14.01,2013-11-20 22:41:00,
2013-11-20 16:45:00,71.1,24.1,24.86,WNW,291,4.9,7.6,17,0.00,,---,0.00,VWS V14.01,2013-11-20 22:45:00,
2013-11-20 16:46:00,71.1,24.1,24.86,WNW,294,6.3,8.3,17,0.00,,---,0.00,VWS V14.01,2013-11-20 22:46:00,
2013-11-20 16:49:00,71.2,24.2,24.86,WNW,285,5.8,8.1,17,0.00,,---,0.00,VWS V14.01,2013-11-20 22:49:00,
2013-11-20 16:52:00,71.4,24.4,24.86,West,267,5.8,5.8,17,0.00,,---,0.00,VWS V14.01,2013-11-20 22:52:00,
2013-11-20 16:53:00,71.6,23.1,24.86,West,265,5.4,6.3,16,0.00,,---,0.00,VWS V14.01,2013-11-20 22:53:00,
2013-11-20 16:57:00,72.1,23.5,24.86,NW,304,7.6,10.5,16,0.00,,---,0.00,VWS V14.01,2013-11-20 22:57:00,
2013-11-20 16:59:00,72.1,23.5,24.86,WNW,292,9.6,10.1,16,0.00,,---,0.00,VWS V14.01,2013-11-20 22:59:00,
2013-11-20 17:00:00,72.1,23.5,24.86,WSW,254,8.1,11.0,16,0.00,,---,0.00,VWS V14.01,2013-11-20 23:00:00,
2013-11-20 17:03:00,72.1,23.5,24.86,WNW,298,8.1,8.1,16,0.00,,---,0.00,VWS V14.01,2013-11-20 23:03:00,
2013-11-20 17:05:00,72.1,23.5,24.86,WNW,292,6.3,8.7,16,0.00,,---,0.00,VWS V14.01,2013-11-20 23:05:00,
2013-11-20 17:06:00,72.0,23.4,24.86,NW,308,4.9,7.6,16,0.00,,---,0.00,VWS V14.01,2013-11-20 23:06:00,
2013-11-20 17:07:00,71.8,23.2,24.86,NW,319,5.4,6.3,16,0.00,,---,0.00,VWS V14.01,2013-11-20 23:07:00,
2013-11-20 17:09:00,71.4,24.4,24.86,NW,325,8.1,8.7,17,0.00,,---,0.00,VWS V14.01,2013-11-20 23:09:00,
2013-11-20 17:12:00,71.2,24.2,24.86,NW,320,8.7,8.7,17,0.00,,---,0.00,VWS V14.01,2013-11-20 23:12:00,
2013-11-20 17:13:00,70.9,23.9,24.86,WNW,303,8.3,11.0,17,0.00,,---,0.00,VWS V14.01,2013-11-20 23:13:00,
2013-11-20 17:14:00,70.7,23.8,24.86,WNW,299,10.1,10.5,17,0.00,,---,0.00,VWS V14.01,2013-11-20 23:14:00,
2013-11-20 17:16:00,70.7,23.8,24.86,WNW,300,8.3,10.1,17,0.00,,---,0.00,VWS V14.01,2013-11-20 23:16:00,
2013-11-20 17:19:00,70.5,23.6,24.86,NW,316,5.8,10.5,17,0.00,,---,0.00,VWS V14.01,2013-11-20 23:19:00,
2013-11-20 17:20:00,70.5,23.6,24.86,WNW,302,8.1,8.3,17,0.00,,---,0.00,VWS V14.01,2013-11-20 23:20:00,
2013-11-20 17:21:00,70.5,23.6,24.86,NW,323,6.3,8.1,17,0.00,,---,0.00,VWS V14.01,2013-11-20 23:21:00,
2013-11-20 17:23:00,70.3,23.5,24.86,WNW,292,5.4,6.3,17,0.00,,---,0.00,VWS V14.01,2013-11-20 23:23:00,
2013-11-20 17:24:00,70.3,23.5,24.86,WNW,302,5.8,5.8,17,0.00,,---,0.00,VWS V14.01,2013-11-20 23:24:00,
2013-11-20 17:26:00,70.2,23.4,24.86,NW,314,4.0,5.4,17,0.00,,---,0.00,VWS V14.01,2013-11-20 23:26:00,
2013-11-20 17:27:00,70.0,23.2,24.86,WNW,301,8.7,8.7,17,0.00,,---,0.00,VWS V14.01,2013-11-20 23:27:00,
2013-11-20 17:29:00,69.8,23.1,24.86,WNW,303,5.8,8.1,17,0.00,,---,0.00,VWS V14.01,2013-11-20 23:29:00,
2013-11-20 17:31:00,69.6,22.9,24.89,WNW,299,8.3,10.1,17,0.00,,---,0.00,VWS V14.01,2013-11-20 23:31:00,
2013-11-20 17:33:00,69.4,22.8,24.89,NW,309,5.4,7.6,17,0.00,,---,0.00,VWS V14.01,2013-11-20 23:33:00,
2013-11-20 17:35:00,69.3,22.6,24.89,WNW,295,5.8,7.6,17,0.00,,---,0.00,VWS V14.01,2013-11-20 23:35:00,
2013-11-20 17:37:00,69.1,22.5,24.89,WNW,303,5.4,8.7,17,0.00,,---,0.00,VWS V14.01,2013-11-20 23:37:00,
2013-11-20 17:39:00,68.7,22.2,24.89,WNW,299,6.3,6.3,17,0.00,,---,0.00,VWS V14.01,2013-11-20 23:39:00,
2013-11-20 17:40:00,68.7,22.2,24.89,WNW,292,4.0,6.3,17,0.00,,---,0.00,VWS V14.01,2013-11-20 23:40:00,
2013-11-20 17:42:00,68.5,22.0,24.89,NW,314,5.4,6.3,17,0.00,,---,0.00,VWS V14.01,2013-11-20 23:42:00,
2013-11-20 17:44:00,68.4,21.9,24.89,WNW,288,5.8,6.3,17,0.00,,---,0.00,VWS V14.01,2013-11-20 23:44:00,
2013-11-20 17:45:00,68.2,21.7,24.89,WNW,293,6.3,6.3,17,0.00,,---,0.00,VWS V14.01,2013-11-20 23:45:00,
2013-11-20 17:47:00,68.0,21.6,24.89,NW,311,6.3,6.3,17,0.00,,---,0.00,VWS V14.01,2013-11-20 23:47:00,
2013-11-20 17:48:00,67.8,21.5,24.89,NW,306,4.0,6.3,17,0.00,,---,0.00,VWS V14.01,2013-11-20 23:48:00,
2013-11-20 17:49:00,67.5,21.2,24.89,WNW,298,5.8,5.8,17,0.00,,---,0.00,VWS V14.01,2013-11-20 23:49:00,
2013-11-20 17:54:00,66.9,20.7,24.89,WNW,302,5.8,6.3,17,0.00,,---,0.00,VWS V14.01,2013-11-20 23:54:00,
2013-11-20 17:55:00,66.6,20.4,24.89,WNW,301,5.4,5.8,17,0.00,,---,0.00,VWS V14.01,2013-11-20 23:55:00,
2013-11-20 17:56:00,66.6,20.4,24.89,NW,307,5.4,5.8,17,0.00,,---,0.00,VWS V14.01,2013-11-20 23:56:00,
2013-11-20 17:57:00,66.4,20.3,24.89,WNW,297,4.9,5.4,17,0.00,,---,0.00,VWS V14.01,2013-11-20 23:57:00,
2013-11-20 17:59:00,66.0,21.3,24.89,WNW,297,4.9,6.3,18,0.00,,---,0.00,VWS V14.01,2013-11-20 23:59:00,
2013-11-20 18:01:00,65.8,21.2,24.89,WNW,295,4.0,5.4,18,0.00,,---,0.00,VWS V14.01,2013-11-21 00:01:00,
2013-11-20 18:02:00,65.8,21.2,24.89,WNW,302,6.3,6.3,18,0.00,,---,0.00,VWS V14.01,2013-11-21 00:02:00,
2013-11-20 18:03:00,65.5,20.9,24.89,WNW,302,5.8,5.8,18,0.00,,---,0.00,VWS V14.01,2013-11-21 00:03:00,
2013-11-20 18:04:00,65.3,20.7,24.89,WNW,289,4.0,5.8,18,0.00,,---,0.00,VWS V14.01,2013-11-21 00:04:00,
2013-11-20 18:08:00,64.8,20.3,24.89,WNW,301,3.6,4.9,18,0.00,,---,0.00,VWS V14.01,2013-11-21 00:08:00,
2013-11-20 18:09:00,64.6,20.1,24.89,WNW,289,3.6,4.5,18,0.00,,---,0.00,VWS V14.01,2013-11-21 00:09:00,
2013-11-20 18:10:00,64.4,20.0,24.89,WNW,297,3.1,4.9,18,0.00,,---,0.00,VWS V14.01,2013-11-21 00:10:00,
2013-11-20 18:13:00,63.9,19.6,24.89,WNW,299,4.0,4.9,18,0.00,,---,0.00,VWS V14.01,2013-11-21 00:13:00,
2013-11-20 18:15:00,63.9,19.6,24.89,WNW,299,3.6,4.0,18,0.00,,---,0.00,VWS V14.01,2013-11-21 00:15:00,
2013-11-20 18:16:00,63.5,19.3,24.89,WNW,297,3.6,4.9,18,0.00,,---,0.00,VWS V14.01,2013-11-21 00:16:00,
2013-11-20 18:18:00,63.1,19.0,24.89,WNW,300,4.0,4.0,18,0.00,,---,0.00,VWS V14.01,2013-11-21 00:18:00,
2013-11-20 18:22:00,62.8,18.7,24.89,NW,314,4.0,4.0,18,0.00,,---,0.00,VWS V14.01,2013-11-21 00:22:00,
2013-11-20 18:24:00,62.6,18.5,24.89,NW,314,2.7,3.6,18,0.00,,---,0.00,VWS V14.01,2013-11-21 00:24:00,
2013-11-20 18:25:00,62.6,18.5,24.89,NW,314,2.2,2.7,18,0.00,,---,0.00,VWS V14.01,2013-11-21 00:25:00,
2013-11-20 18:27:00,62.2,19.5,24.89,NW,314,0.0,2.2,19,0.00,,---,0.00,VWS V14.01,2013-11-21 00:27:00,
2013-11-20 18:29:00,61.9,19.2,24.89,NW,314,0.0,0.0,19,0.00,,---,0.00,VWS V14.01,2013-11-21 00:29:00,
2013-11-20 18:30:00,61.9,19.2,24.89,NNW,337,3.6,3.6,19,0.00,,---,0.00,VWS V14.01,2013-11-21 00:30:00,
2013-11-20 18:31:00,61.7,19.0,24.89,NNW,334,3.6,3.6,19,0.00,,---,0.00,VWS V14.01,2013-11-21 00:31:00,
2013-11-20 18:32:00,61.3,18.8,24.89,NNW,335,3.1,4.0,19,0.00,,---,0.00,VWS V14.01,2013-11-21 00:32:00,
2013-11-20 18:33:00,61.3,18.8,24.89,NNW,333,4.0,4.0,19,0.00,,---,0.00,VWS V14.01,2013-11-21 00:33:00,
2013-11-20 18:36:00,61.0,18.5,24.89,NNW,330,3.1,3.6,19,0.00,,---,0.00,VWS V14.01,2013-11-21 00:36:00,
2013-11-20 18:37:00,61.0,18.5,24.89,NNW,334,3.6,4.0,19,0.00,,---,0.00,VWS V14.01,2013-11-21 00:37:00,
2013-11-20 18:39:00,60.8,18.3,24.89,NNW,333,3.1,4.0,19,0.00,,---,0.00,VWS V14.01,2013-11-21 00:39:00,
2013-11-20 18:40:00,60.8,18.3,24.89,NNW,327,3.6,3.6,19,0.00,,---,0.00,VWS V14.01,2013-11-21 00:40:00,
2013-11-20 18:43:00,60.6,18.2,24.89,NW,319,3.1,4.0,19,0.00,,---,0.00,VWS V14.01,2013-11-21 00:43:00,
2013-11-20 18:45:00,60.6,18.2,24.89,NW,321,3.6,4.0,19,0.00,,---,0.00,VWS V14.01,2013-11-21 00:45:00,
2013-11-20 18:46:00,60.6,18.2,24.89,NW,322,3.6,4.0,19,0.00,,---,0.00,VWS V14.01,2013-11-21 00:46:00,
2013-11-20 18:48:00,60.3,15.3,24.89,NW,318,2.7,4.5,17,0.00,,---,0.00,VWS V14.01,2013-11-21 00:48:00,
2013-11-20 18:49:00,60.3,15.3,24.89,NW,318,2.2,4.0,17,0.00,,---,0.00,VWS V14.01,2013-11-21 00:49:00,
2013-11-20 18:50:00,60.1,15.1,24.89,NW,318,0.0,2.2,17,0.00,,---,0.00,VWS V14.01,2013-11-21 00:50:00,
2013-11-20 18:51:00,60.1,15.1,24.89,NW,318,0.0,0.0,17,0.00,,---,0.00,VWS V14.01,2013-11-21 00:51:00,
2013-11-20 18:52:00,59.9,15.0,24.89,NW,318,0.0,0.0,17,0.00,,---,0.00,VWS V14.01,2013-11-21 00:52:00,
2013-11-20 18:53:00,59.7,14.9,24.89,NW,318,0.0,0.0,17,0.00,,---,0.00,VWS V14.01,2013-11-21 00:53:00,
2013-11-20 18:57:00,59.2,14.4,24.89,NW,318,0.0,0.0,17,0.00,,---,0.00,VWS V14.01,2013-11-21 00:57:00,
2013-11-20 18:58:00,59.2,14.4,24.89,NW,318,0.0,0.0,17,0.00,,---,0.00,VWS V14.01,2013-11-21 00:58:00,
2013-11-20 19:00:00,58.8,14.1,24.89,NW,318,0.0,0.0,17,0.00,,---,0.00,VWS V14.01,2013-11-21 01:00:00,
2013-11-20 19:01:00,58.6,14.0,24.89,NW,318,0.0,0.0,17,0.00,,---,0.00,VWS V14.01,2013-11-21 01:01:00,
2013-11-20 19:06:00,58.1,13.5,24.89,NW,318,0.0,0.0,17,0.00,,---,0.00,VWS V14.01,2013-11-21 01:06:00,
2013-11-20 19:08:00,58.1,13.5,24.89,NW,318,0.0,0.0,17,0.00,,---,0.00,VWS V14.01,2013-11-21 01:08:00,
2013-11-20 19:11:00,57.9,13.4,24.89,NW,318,0.0,0.0,17,0.00,,---,0.00,VWS V14.01,2013-11-21 01:11:00,
2013-11-20 19:13:00,57.9,13.4,24.89,NW,318,0.0,0.0,17,0.00,,---,0.00,VWS V14.01,2013-11-21 01:13:00,
2013-11-20 19:15:00,58.1,13.5,24.89,NW,318,0.0,0.0,17,0.00,,---,0.00,VWS V14.01,2013-11-21 01:15:00,
2013-11-20 19:16:00,58.1,13.5,24.89,NW,317,0.0,0.0,17,0.00,,---,0.00,VWS V14.01,2013-11-21 01:16:00,
2013-11-20 19:18:00,58.1,13.5,24.89,NW,316,0.0,0.0,17,0.00,,---,0.00,VWS V14.01,2013-11-21 01:18:00,
2013-11-20 19:20:00,58.1,13.5,24.89,NW,316,0.0,0.0,17,0.00,,---,0.00,VWS V14.01,2013-11-21 01:20:00,
2013-11-20 19:21:00,57.9,13.4,24.89,NW,316,0.0,0.0,17,0.00,,---,0.00,VWS V14.01,2013-11-21 01:21:00,
2013-11-20 19:25:00,57.7,13.2,24.89,NW,316,0.0,0.0,17,0.00,,---,0.00,VWS V14.01,2013-11-21 01:25:00,
2013-11-20 19:26:00,57.6,13.1,24.89,NW,316,0.0,0.0,17,0.00,,---,0.00,VWS V14.01,2013-11-21 01:26:00,
2013-11-20 19:27:00,57.6,13.1,24.89,NW,316,0.0,0.0,17,0.00,,---,0.00,VWS V14.01,2013-11-21 01:27:00,
2013-11-20 19:28:00,57.4,12.9,24.89,NW,316,0.0,0.0,17,0.00,,---,0.00,VWS V14.01,2013-11-21 01:28:00,
2013-11-20 19:29:00,57.4,12.9,24.89,NW,316,0.0,0.0,17,0.00,,---,0.00,VWS V14.01,2013-11-21 01:29:00,
2013-11-20 19:32:00,57.2,12.8,24.92,NW,316,0.0,0.0,17,0.00,,---,0.00,VWS V14.01,2013-11-21 01:32:00,
2013-11-20 19:33:00,57.0,12.7,24.92,NW,316,0.0,0.0,17,0.00,,---,0.00,VWS V14.01,2013-11-21 01:33:00,
2013-11-20 19:36:00,56.8,12.5,24.92,NW,316,0.0,0.0,17,0.00,,---,0.00,VWS V14.01,2013-11-21 01:36:00,
2013-11-20 19:38:00,56.8,12.5,24.92,NW,316,0.0,0.0,17,0.00,,---,0.00,VWS V14.01,2013-11-21 01:38:00,
2013-11-20 19:40:00,56.7,12.4,24.92,NW,316,0.0,0.0,17,0.00,,---,0.00,VWS V14.01,2013-11-21 01:40:00,
2013-11-20 19:41:00,56.7,12.4,24.92,NW,316,0.0,0.0,17,0.00,,---,0.00,VWS V14.01,2013-11-21 01:41:00,
2013-11-20 19:42:00,56.7,12.4,24.92,NW,316,0.0,0.0,17,0.00,,---,0.00,VWS V14.01,2013-11-21 01:42:00,
2013-11-20 19:43:00,56.7,12.4,24.92,NW,316,0.0,0.0,17,0.00,,---,0.00,VWS V14.01,2013-11-21 01:43:00,
2013-11-20 19:46:00,56.7,12.4,24.92,NW,316,0.0,0.0,17,0.00,,---,0.00,VWS V14.01,2013-11-21 01:46:00,
2013-11-20 19:47:00,56.7,12.4,24.92,NW,316,0.0,0.0,17,0.00,,---,0.00,VWS V14.01,2013-11-21 01:47:00,
2013-11-20 19:53:00,56.7,12.4,24.92,NW,316,0.0,0.0,17,0.00,,---,0.00,VWS V14.01,2013-11-21 01:53:00,
2013-11-20 19:54:00,56.5,12.2,24.92,NW,316,0.0,0.0,17,0.00,,---,0.00,VWS V14.01,2013-11-21 01:54:00,
2013-11-20 19:57:00,56.5,12.2,24.92,NW,316,0.0,0.0,17,0.00,,---,0.00,VWS V14.01,2013-11-21 01:57:00,
2013-11-20 19:58:00,56.5,12.2,24.92,NW,316,0.0,0.0,17,0.00,,---,0.00,VWS V14.01,2013-11-21 01:58:00,
2013-11-20 20:03:00,56.3,12.1,24.92,NW,316,0.0,0.0,17,0.00,,---,0.00,VWS V14.01,2013-11-21 02:03:00,
2013-11-20 20:04:00,56.3,12.1,24.92,NW,316,0.0,0.0,17,0.00,,---,0.00,VWS V14.01,2013-11-21 02:04:00,
2013-11-20 20:07:00,56.1,11.9,24.92,NW,316,0.0,0.0,17,0.00,,---,0.00,VWS V14.01,2013-11-21 02:07:00,
2013-11-20 20:10:00,55.4,11.3,24.92,NW,316,0.0,0.0,17,0.00,,---,0.00,VWS V14.01,2013-11-21 02:10:00,
2013-11-20 20:11:00,55.2,12.5,24.92,NW,316,0.0,0.0,18,0.00,,---,0.00,VWS V14.01,2013-11-21 02:11:00,
2013-11-20 20:14:00,54.7,12.0,24.92,NW,316,0.0,0.0,18,0.00,,---,0.00,VWS V14.01,2013-11-21 02:14:00,
2013-11-20 20:16:00,54.5,11.9,24.92,NW,316,0.0,0.0,18,0.00,,---,0.00,VWS V14.01,2013-11-21 02:16:00,
2013-11-20 20:17:00,54.3,11.7,24.92,NW,316,0.0,0.0,18,0.00,,---,0.00,VWS V14.01,2013-11-21 02:17:00,
2013-11-20 20:18:00,54.1,11.6,24.92,NW,316,0.0,0.0,18,0.00,,---,0.00,VWS V14.01,2013-11-21 02:18:00,
2013-11-20 20:20:00,54.0,11.4,24.92,NW,316,0.0,0.0,18,0.00,,---,0.00,VWS V14.01,2013-11-21 02:20:00,
2013-11-20 20:21:00,54.0,11.4,24.92,NW,316,0.0,0.0,18,0.00,,---,0.00,VWS V14.01,2013-11-21 02:21:00,
2013-11-20 20:22:00,53.8,11.3,24.92,NW,316,0.0,0.0,18,0.00,,---,0.00,VWS V14.01,2013-11-21 02:22:00,
2013-11-20 20:24:00,53.6,11.1,24.92,NW,316,0.0,0.0,18,0.00,,---,0.00,VWS V14.01,2013-11-21 02:24:00,
2013-11-20 20:25:00,53.6,11.1,24.92,NW,316,0.0,0.0,18,0.00,,---,0.00,VWS V14.01,2013-11-21 02:25:00,
2013-11-20 20:26:00,53.4,11.0,24.92,NW,316,0.0,0.0,18,0.00,,---,0.00,VWS V14.01,2013-11-21 02:26:00,
2013-11-20 20:27:00,53.4,11.0,24.92,NW,316,0.0,0.0,18,0.00,,---,0.00,VWS V14.01,2013-11-21 02:27:00,
2013-11-20 20:29:00,53.2,10.9,24.92,NW,316,0.0,0.0,18,0.00,,---,0.00,VWS V14.01,2013-11-21 02:29:00,
2013-11-20 20:30:00,53.2,10.9,24.92,NW,316,0.0,0.0,18,0.00,,---,0.00,VWS V14.01,2013-11-21 02:30:00,
2013-11-20 20:32:00,53.1,10.7,24.92,NW,316,0.0,0.0,18,0.00,,---,0.00,VWS V14.01,2013-11-21 02:32:00,
2013-11-20 20:33:00,52.9,10.6,24.92,NW,316,0.0,0.0,18,0.00,,---,0.00,VWS V14.01,2013-11-21 02:33:00,
2013-11-20 20:34:00,52.9,10.6,24.92,NW,316,0.0,0.0,18,0.00,,---,0.00,VWS V14.01,2013-11-21 02:34:00,
2013-11-20 20:35:00,52.7,10.4,24.92,NW,316,0.0,0.0,18,0.00,,---,0.00,VWS V14.01,2013-11-21 02:35:00,
2013-11-20 20:36:00,52.7,10.4,24.92,NW,316,0.0,0.0,18,0.00,,---,0.00,VWS V14.01,2013-11-21 02:36:00,
2013-11-20 20:37:00,52.5,10.2,24.92,NW,316,0.0,0.0,18,0.00,,---,0.00,VWS V14.01,2013-11-21 02:37:00,
2013-11-20 20:39:00,52.3,10.1,24.92,NW,316,0.0,0.0,18,0.00,,---,0.00,VWS V14.01,2013-11-21 02:39:00,
2013-11-20 20:40:00,52.3,10.1,24.92,NW,316,0.0,0.0,18,0.00,,---,0.00,VWS V14.01,2013-11-21 02:40:00,
2013-11-20 20:41:00,52.2,10.0,24.92,NW,316,0.0,0.0,18,0.00,,---,0.00,VWS V14.01,2013-11-21 02:41:00,
2013-11-20 20:42:00,52.2,10.0,24.92,NW,317,3.6,3.6,18,0.00,,---,0.00,VWS V14.01,2013-11-21 02:42:00,
2013-11-20 20:46:00,51.8,9.7,24.92,NW,317,3.1,4.0,18,0.00,,---,0.00,VWS V14.01,2013-11-21 02:46:00,
2013-11-20 20:47:00,51.8,9.7,24.92,NW,317,3.6,4.0,18,0.00,,---,0.00,VWS V14.01,2013-11-21 02:47:00,
2013-11-20 20:50:00,51.6,10.7,24.92,NW,317,3.1,4.0,19,0.00,,---,0.00,VWS V14.01,2013-11-21 02:50:00,
2013-11-20 20:52:00,51.4,10.6,24.92,NW,317,2.7,3.6,19,0.00,,---,0.00,VWS V14.01,2013-11-21 02:52:00,
2013-11-20 20:54:00,51.4,10.6,24.92,NW,317,3.6,3.6,19,0.00,,---,0.00,VWS V14.01,2013-11-21 02:54:00,
2013-11-20 20:55:00,51.4,10.6,24.92,NW,317,4.0,4.0,19,0.00,,---,0.00,VWS V14.01,2013-11-21 02:55:00,
2013-11-20 20:57:00,51.3,10.4,24.92,NW,318,3.1,3.6,19,0.00,,---,0.00,VWS V14.01,2013-11-21 02:57:00,
2013-11-20 20:58:00,51.3,10.4,24.92,NW,318,2.7,4.0,19,0.00,,---,0.00,VWS V14.01,2013-11-21 02:58:00,
2013-11-20 21:00:00,51.3,10.4,24.92,NW,320,2.7,3.6,19,0.00,,---,0.00,VWS V14.01,2013-11-21 03:00:00,
2013-11-20 21:01:00,51.3,10.4,24.92,NW,320,3.1,3.6,19,0.00,,---,0.00,VWS V14.01,2013-11-21 03:01:00,
2013-11-20 21:02:00,51.3,10.4,24.92,NW,320,2.7,3.1,19,0.00,,---,0.00,VWS V14.01,2013-11-21 03:02:00,
2013-11-20 21:05:00,51.1,10.3,24.92,NW,320,3.1,3.1,19,0.00,,---,0.00,VWS V14.01,2013-11-21 03:05:00,
2013-11-20 21:08:00,50.9,10.1,24.92,NW,320,0.0,0.0,19,0.00,,---,0.00,VWS V14.01,2013-11-21 03:08:00,
2013-11-20 21:09:00,50.9,10.1,24.92,NW,320,0.0,0.0,19,0.00,,---,0.00,VWS V14.01,2013-11-21 03:09:00,
2013-11-20 21:10:00,50.7,10.0,24.92,NW,320,0.0,0.0,19,0.00,,---,0.00,VWS V14.01,2013-11-21 03:10:00,
2013-11-20 21:12:00,50.7,10.0,24.92,NNW,328,3.6,3.6,19,0.00,,---,0.00,VWS V14.01,2013-11-21 03:12:00,
2013-11-20 21:13:00,50.7,10.0,24.92,NNW,328,3.6,4.0,19,0.00,,---,0.00,VWS V14.01,2013-11-21 03:13:00,
2013-11-20 21:14:00,50.7,10.0,24.92,NW,322,4.0,4.9,19,0.00,,---,0.00,VWS V14.01,2013-11-21 03:14:00,
2013-11-20 21:16:00,50.5,9.8,24.92,NW,322,3.6,4.5,19,0.00,,---,0.00,VWS V14.01,2013-11-21 03:16:00,
2013-11-20 21:17:00,50.5,9.8,24.92,NW,323,3.1,4.0,19,0.00,,---,0.00,VWS V14.01,2013-11-21 03:17:00,
2013-11-20 21:18:00,50.5,9.8,24.92,NW,323,3.6,3.6,19,0.00,,---,0.00,VWS V14.01,2013-11-21 03:18:00,
2013-11-20 21:20:00,50.5,9.8,24.92,NW,323,2.7,3.6,19,0.00,,---,0.00,VWS V14.01,2013-11-21 03:20:00,
2013-11-20 21:21:00,50.5,9.8,24.92,NW,323,3.1,3.1,19,0.00,,---,0.00,VWS V14.01,2013-11-21 03:21:00,
2013-11-20 21:24:00,50.4,9.7,24.92,NNW,327,4.0,4.0,19,0.00,,---,0.00,VWS V14.01,2013-11-21 03:24:00,
2013-11-20 21:25:00,50.4,11.9,24.92,NW,322,4.0,4.9,21,0.00,,---,0.00,VWS V14.01,2013-11-21 03:25:00,
2013-11-20 21:26:00,50.4,11.9,24.92,NW,315,4.0,4.9,21,0.00,,---,0.00,VWS V14.01,2013-11-21 03:26:00,
2013-11-20 21:27:00,50.2,11.8,24.92,NW,315,4.0,4.0,21,0.00,,---,0.00,VWS V14.01,2013-11-21 03:27:00,
2013-11-20 21:28:00,50.2,11.8,24.92,NW,308,4.0,4.9,21,0.00,,---,0.00,VWS V14.01,2013-11-21 03:28:00,
2013-11-20 21:31:00,50.2,11.8,24.92,NW,321,5.4,5.4,21,0.00,,---,0.00,VWS V14.01,2013-11-21 03:31:00,
2013-11-20 21:33:00,50.0,11.6,24.92,NW,318,2.7,3.1,21,0.00,,---,0.00,VWS V14.01,2013-11-21 03:33:00,
2013-11-20 21:34:00,50.0,11.6,24.92,NW,318,3.1,4.0,21,0.00,,---,0.00,VWS V14.01,2013-11-21 03:34:00,
2013-11-20 21:37:00,50.0,11.6,24.92,NW,323,3.6,4.0,21,0.00,,---,0.00,VWS V14.01,2013-11-21 03:37:00,
2013-11-20 21:38:00,49.8,11.5,24.92,NNW,328,3.6,4.0,21,0.00,,---,0.00,VWS V14.01,2013-11-21 03:38:00,
2013-11-20 21:41:00,49.8,11.5,24.92,NNW,328,3.1,3.1,21,0.00,,---,0.00,VWS V14.01,2013-11-21 03:41:00,
2013-11-20 21:42:00,49.8,11.5,24.92,NNW,328,3.1,3.6,21,0.00,,---,0.00,VWS V14.01,2013-11-21 03:42:00,
2013-11-20 21:45:00,49.6,11.3,24.92,NW,316,4.0,4.9,21,0.00,,---,0.00,VWS V14.01,2013-11-21 03:45:00,
2013-11-20 21:46:00,49.5,11.2,24.92,NW,313,4.0,4.9,21,0.00,,---,0.00,VWS V14.01,2013-11-21 03:46:00,
2013-11-20 21:47:00,49.5,11.2,24.92,NW,320,4.9,4.9,21,0.00,,---,0.00,VWS V14.01,2013-11-21 03:47:00,
2013-11-20 21:48:00,49.5,11.2,24.92,NW,318,4.0,4.9,21,0.00,,---,0.00,VWS V14.01,2013-11-21 03:48:00,
2013-11-20 21:50:00,49.3,11.0,24.92,NW,318,2.7,3.1,21,0.00,,---,0.00,VWS V14.01,2013-11-21 03:50:00,
2013-11-20 21:52:00,49.3,11.0,24.92,NW,320,2.7,4.0,21,0.00,,---,0.00,VWS V14.01,2013-11-21 03:52:00,
2013-11-20 21:55:00,49.1,10.9,24.92,NW,307,3.1,5.4,21,0.00,,---,0.00,VWS V14.01,2013-11-21 03:55:00,
2013-11-20 21:56:00,49.1,10.9,24.92,NW,307,2.7,3.6,21,0.00,,---,0.00,VWS V14.01,2013-11-21 03:56:00,
2013-11-20 22:01:00,48.9,10.7,24.92,NW,307,2.7,3.6,21,0.00,,---,0.00,VWS V14.01,2013-11-21 04:01:00,
2013-11-20 22:03:00,48.9,10.7,24.92,NW,307,2.7,2.7,21,0.00,,---,0.00,VWS V14.01,2013-11-21 04:03:00,
2013-11-20 22:04:00,48.7,10.6,24.92,NW,307,2.2,2.7,21,0.00,,---,0.00,VWS V14.01,2013-11-21 04:04:00,
2013-11-20 22:05:00,48.7,10.6,24.92,NW,307,2.7,2.7,21,0.00,,---,0.00,VWS V14.01,2013-11-21 04:05:00,
2013-11-20 22:09:00,48.6,10.4,24.92,NW,309,2.7,3.6,21,0.00,,---,0.00,VWS V14.01,2013-11-21 04:09:00,
2013-11-20 22:10:00,48.6,10.4,24.92,NW,312,3.1,3.6,21,0.00,,---,0.00,VWS V14.01,2013-11-21 04:10:00,
2013-11-20 22:12:00,48.6,10.4,24.92,NW,312,3.6,3.6,21,0.00,,---,0.00,VWS V14.01,2013-11-21 04:12:00,
2013-11-20 22:14:00,48.6,10.4,24.92,NW,312,3.1,3.1,21,0.00,,---,0.00,VWS V14.01,2013-11-21 04:14:00,
2013-11-20 22:15:00,48.6,10.4,24.92,NW,312,4.5,4.5,21,0.00,,---,0.00,VWS V14.01,2013-11-21 04:15:00,
2013-11-20 22:17:00,48.6,10.4,24.92,NW,312,3.1,3.6,21,0.00,,---,0.00,VWS V14.01,2013-11-21 04:17:00,
2013-11-20 22:21:00,48.6,10.4,24.92,NW,312,3.1,3.6,21,0.00,,---,0.00,VWS V14.01,2013-11-21 04:21:00,
2013-11-20 22:22:00,48.6,10.4,24.92,NW,312,3.6,4.0,21,0.00,,---,0.00,VWS V14.01,2013-11-21 04:22:00,
2013-11-20 22:24:00,48.6,10.4,24.92,NW,312,2.7,3.1,21,0.00,,---,0.00,VWS V14.01,2013-11-21 04:24:00,
2013-11-20 22:25:00,48.6,10.4,24.92,NW,312,2.2,3.1,21,0.00,,---,0.00,VWS V14.01,2013-11-21 04:25:00,
2013-11-20 22:27:00,48.4,10.3,24.92,NW,312,0.0,0.0,21,0.00,,---,0.00,VWS V14.01,2013-11-21 04:27:00,
2013-11-20 22:30:00,48.4,10.3,24.92,NW,312,0.0,0.0,21,0.00,,---,0.00,VWS V14.01,2013-11-21 04:30:00,
2013-11-20 22:31:00,48.2,10.1,24.92,NW,312,0.0,0.0,21,0.00,,---,0.00,VWS V14.01,2013-11-21 04:31:00,
2013-11-20 22:35:00,48.2,10.1,24.92,NW,312,0.0,0.0,21,0.00,,---,0.00,VWS V14.01,2013-11-21 04:35:00,
2013-11-20 22:36:00,48.2,10.1,24.92,NW,312,0.0,0.0,21,0.00,,---,0.00,VWS V14.01,2013-11-21 04:36:00,
2013-11-20 22:37:00,48.0,11.0,24.92,NW,312,2.7,2.7,22,0.00,,---,0.00,VWS V14.01,2013-11-21 04:37:00,
2013-11-20 22:38:00,48.0,11.0,24.92,NW,312,3.6,3.6,22,0.00,,---,0.00,VWS V14.01,2013-11-21 04:38:00,
2013-11-20 22:42:00,48.0,11.0,24.92,NW,312,2.7,4.0,22,0.00,,---,0.00,VWS V14.01,2013-11-21 04:42:00,
2013-11-20 22:44:00,48.0,11.0,24.92,NW,312,3.1,3.1,22,0.00,,---,0.00,VWS V14.01,2013-11-21 04:44:00,
2013-11-20 22:46:00,48.0,11.0,24.92,NW,312,2.7,3.1,22,0.00,,---,0.00,VWS V14.01,2013-11-21 04:46:00,
2013-11-20 22:47:00,48.0,11.0,24.92,NW,312,2.2,3.1,22,0.00,,---,0.00,VWS V14.01,2013-11-21 04:47:00,
2013-11-20 22:48:00,48.0,11.0,24.92,NW,312,2.7,2.7,22,0.00,,---,0.00,VWS V14.01,2013-11-21 04:48:00,
2013-11-20 22:52:00,47.8,10.9,24.92,NW,312,2.7,3.6,22,0.00,,---,0.00,VWS V14.01,2013-11-21 04:52:00,
2013-11-20 22:54:00,47.8,10.9,24.92,NW,312,3.6,3.6,22,0.00,,---,0.00,VWS V14.01,2013-11-21 04:54:00,
2013-11-20 22:55:00,47.8,10.9,24.92,NW,312,4.0,4.0,22,0.00,,---,0.00,VWS V14.01,2013-11-21 04:55:00,
2013-11-20 22:56:00,47.8,10.9,24.92,NW,312,4.0,4.0,22,0.00,,---,0.00,VWS V14.01,2013-11-21 04:56:00,
2013-11-20 22:59:00,48.0,11.0,24.92,NW,313,3.1,4.0,22,0.00,,---,0.00,VWS V14.01,2013-11-21 04:59:00,
2013-11-20 23:01:00,48.2,10.1,24.92,NW,314,3.1,4.0,21,0.00,,---,0.00,VWS V14.01,2013-11-21 05:01:00,
2013-11-20 23:02:00,48.2,10.1,24.92,NW,313,4.0,4.0,21,0.00,,---,0.00,VWS V14.01,2013-11-21 05:02:00,
2013-11-20 23:04:00,48.0,11.0,24.92,NW,313,4.0,4.9,22,0.00,,---,0.00,VWS V14.01,2013-11-21 05:04:00,
2013-11-20 23:06:00,48.0,11.0,24.92,NW,313,5.4,5.4,22,0.00,,---,0.00,VWS V14.01,2013-11-21 05:06:00,
2013-11-20 23:07:00,48.0,11.0,24.92,NW,311,4.0,5.4,22,0.00,,---,0.00,VWS V14.01,2013-11-21 05:07:00,
2013-11-20 23:10:00,47.8,12.8,24.92,WNW,303,4.0,4.9,24,0.00,,---,0.00,VWS V14.01,2013-11-21 05:10:00,
2013-11-20 23:11:00,47.8,12.8,24.92,WNW,303,4.0,4.0,24,0.00,,---,0.00,VWS V14.01,2013-11-21 05:11:00,
2013-11-20 23:12:00,47.7,12.7,24.92,NW,307,4.0,4.5,24,0.00,,---,0.00,VWS V14.01,2013-11-21 05:12:00,
2013-11-20 23:13:00,47.7,12.7,24.92,NW,311,3.1,4.0,24,0.00,,---,0.00,VWS V14.01,2013-11-21 05:13:00,
2013-11-20 23:14:00,47.5,12.5,24.92,NW,311,0.0,4.0,24,0.00,,---,0.00,VWS V14.01,2013-11-21 05:14:00,
2013-11-20 23:17:00,47.5,10.6,24.92,NW,311,0.0,0.0,22,0.00,,---,0.00,VWS V14.01,2013-11-21 05:17:00,
2013-11-20 23:20:00,47.1,12.2,24.92,NW,311,0.0,0.0,24,0.00,,---,0.00,VWS V14.01,2013-11-21 05:20:00,
2013-11-20 23:22:00,47.1,12.2,24.92,NW,311,0.0,0.0,24,0.00,,---,0.00,VWS V14.01,2013-11-21 05:22:00,
2013-11-20 23:24:00,46.9,12.1,24.92,NW,311,3.6,4.9,24,0.00,,---,0.00,VWS V14.01,2013-11-21 05:24:00,
2013-11-20 23:27:00,46.9,12.1,24.92,NW,311,3.6,4.0,24,0.00,,---,0.00,VWS V14.01,2013-11-21 05:27:00,
2013-11-20 23:28:00,46.8,11.9,24.92,NW,311,4.9,4.9,24,0.00,,---,0.00,VWS V14.01,2013-11-21 05:28:00,
2013-11-20 23:29:00,46.8,11.9,24.92,NW,310,4.0,5.4,24,0.00,,---,0.00,VWS V14.01,2013-11-21 05:29:00,
2013-11-20 23:31:00,46.8,11.9,24.92,NW,310,4.0,4.9,24,0.00,,---,0.00,VWS V14.01,2013-11-21 05:31:00,
2013-11-20 23:34:00,46.6,11.7,24.92,NW,310,3.6,4.0,24,0.00,,---,0.00,VWS V14.01,2013-11-21 05:34:00,
2013-11-20 23:36:00,46.8,11.9,24.92,NW,311,3.6,4.0,24,0.00,,---,0.00,VWS V14.01,2013-11-21 05:36:00,
2013-11-20 23:38:00,46.8,11.9,24.92,NW,311,3.1,4.0,24,0.00,,---,0.00,VWS V14.01,2013-11-21 05:38:00,
2013-11-20 23:41:00,46.8,11.9,24.92,NW,311,2.7,3.6,24,0.00,,---,0.00,VWS V14.01,2013-11-21 05:41:00,
2013-11-20 23:42:00,46.9,12.1,24.92,NW,311,3.1,4.0,24,0.00,,---,0.00,VWS V14.01,2013-11-21 05:42:00,
2013-11-20 23:43:00,46.9,12.1,24.92,NW,311,3.6,3.6,24,0.00,,---,0.00,VWS V14.01,2013-11-21 05:43:00,
2013-11-20 23:45:00,46.9,14.7,24.92,NW,311,3.1,3.1,27,0.00,,---,0.00,VWS V14.01,2013-11-21 05:45:00,
2013-11-20 23:47:00,46.9,14.7,24.92,NW,311,0.0,0.0,27,0.00,,---,0.00,VWS V14.01,2013-11-21 05:47:00,
2013-11-20 23:48:00,47.1,14.9,24.92,NW,311,0.0,0.0,27,0.00,,---,0.00,VWS V14.01,2013-11-21 05:48:00,
2013-11-20 23:49:00,47.1,14.9,24.92,NW,311,0.0,0.0,27,0.00,,---,0.00,VWS V14.01,2013-11-21 05:49:00,
2013-11-20 23:50:00,47.1,14.9,24.92,NW,311,0.0,0.0,27,0.00,,---,0.00,VWS V14.01,2013-11-21 05:50:00,
2013-11-20 23:52:00,47.1,14.9,24.92,NW,311,0.0,0.0,27,0.00,,---,0.00,VWS V14.01,2013-11-21 05:52:00,
2013-11-20 23:53:00,47.1,14.9,24.92,NW,311,0.0,0.0,27,0.00,,---,0.00,VWS V14.01,2013-11-21 05:53:00,
2013-11-20 23:55:00,47.1,14.9,24.92,NW,311,0.0,0.0,27,0.00,,---,0.00,VWS V14.01,2013-11-21 05:55:00,
2013-11-20 23:56:00,46.9,14.7,24.92,NW,311,0.0,0.0,27,0.00,,---,0.00,VWS V14.01,2013-11-21 05:56:00,